Wetterdaten: Donnerstag, 26.03.2015
Datum Zeit Temp. Aussen +5cm Feuchte Auss Luftdruck Regen Sonnenschein Regendauer Solar Windben
26.03.2015 00:00 5,7 C 4,4 C 95 % 1008,3 hPa 0,0 l/m 0 min 0 min 0 W/m 10,5 km/h (2 Bft)
26.03.2015 00:02 5,7 C 4,4 C 95 % 1008,3 hPa 0,0 l/m 0 min 0 min 0 W/m 12,6 km/h (3 Bft)
26.03.2015 00:06 5,7 C 4,4 C 95 % 1008,3 hPa 0,0 l/m 0 min 0 min 0 W/m 14,6 km/h (3 Bft)
26.03.2015 00:08 5,7 C 4,4 C 95 % 1008,3 hPa 0,0 l/m 0 min 0 min 0 W/m 12,6 km/h (3 Bft)
26.03.2015 00:10 5,7 C 4,4 C 95 % 1008,3 hPa 0,0 l/m 0 min 0 min 0 W/m 12,6 km/h (3 Bft)
26.03.2015 00:12 5,7 C 4,4 C 95 % 1008,3 hPa 0,0 l/m 0 min 0 min 0 W/m 12,6 km/h (3 Bft)
26.03.2015 00:14 5,7 C 4,4 C 95 % 1008,3 hPa 0,0 l/m 0 min 0 min 0 W/m 10,5 km/h (2 Bft)
26.03.2015 00:16 5,7 C 4,4 C 95 % 1008,3 hPa 0,0 l/m 0 min 0 min 0 W/m 12,6 km/h (3 Bft)
26.03.2015 00:18 5,7 C 4,4 C 95 % 1008,3 hPa 0,0 l/m 0 min 0 min 0 W/m 6,3 km/h (2 Bft)
26.03.2015 00:20 5,7 C 4,4 C 95 % 1008,2 hPa 0,0 l/m 0 min 0 min 0 W/m 12,6 km/h (3 Bft)
26.03.2015 00:22 5,7 C 4,4 C 95 % 1008,3 hPa 0,0 l/m 0 min 0 min 0 W/m 6,3 km/h (2 Bft)
26.03.2015 00:24 5,6 C 4,4 C 95 % 1008,2 hPa 0,0 l/m 0 min 0 min 0 W/m 8,4 km/h (2 Bft)
26.03.2015 00:26 5,7 C 4,4 C 95 % 1008,3 hPa 0,0 l/m 0 min 0 min 0 W/m 14,6 km/h (3 Bft)
26.03.2015 00:28 5,6 C 4,4 C 95 % 1008,3 hPa 0,0 l/m 0 min 0 min 0 W/m 16,7 km/h (3 Bft)
26.03.2015 00:30 5,6 C 4,4 C 95 % 1008,3 hPa 0,0 l/m 0 min 0 min 0 W/m 8,4 km/h (2 Bft)
26.03.2015 00:32 5,6 C 4,4 C 95 % 1008,2 hPa 0,0 l/m 0 min 0 min 0 W/m 10,5 km/h (2 Bft)
26.03.2015 00:34 5,6 C 4,4 C 95 % 1008,2 hPa 0,0 l/m 0 min 0 min 0 W/m 10,5 km/h (2 Bft)
26.03.2015 00:36 5,6 C 4,4 C 95 % 1008,3 hPa 0,0 l/m 0 min 0 min 0 W/m 12,6 km/h (3 Bft)
26.03.2015 00:38 5,6 C 4,4 C 95 % 1008,3 hPa 0,0 l/m 0 min 0 min 0 W/m 10,5 km/h (2 Bft)
26.03.2015 00:40 5,6 C 4,4 C 95 % 1008,3 hPa 0,0 l/m 0 min 0 min 0 W/m 10,5 km/h (2 Bft)
26.03.2015 00:42 5,6 C 4,4 C 95 % 1008,3 hPa 0,0 l/m 0 min 0 min 0 W/m 10,5 km/h (2 Bft)
26.03.2015 00:44 5,6 C 4,4 C 95 % 1008,3 hPa 0,0 l/m 0 min 0 min 0 W/m 8,4 km/h (2 Bft)
26.03.2015 00:46 5,6 C 4,4 C 95 % 1008,3 hPa 0,0 l/m 0 min 0 min 0 W/m 12,6 km/h (3 Bft)
26.03.2015 00:48 5,6 C 4,4 C 95 % 1008,4 hPa 0,0 l/m 0 min 0 min 0 W/m 12,6 km/h (3 Bft)
26.03.2015 00:50 5,6 C 4,4 C 95 % 1008,3 hPa 0,0 l/m 0 min 0 min 0 W/m 14,6 km/h (3 Bft)
26.03.2015 00:52 5,6 C 4,4 C 95 % 1008,3 hPa 0,0 l/m 0 min 0 min 0 W/m 10,5 km/h (2 Bft)
26.03.2015 00:54 5,6 C 4,4 C 95 % 1008,3 hPa 0,0 l/m 0 min 0 min 0 W/m 6,3 km/h (2 Bft)
26.03.2015 00:56 5,6 C 4,4 C 95 % 1008,3 hPa 0,0 l/m 0 min 0 min 0 W/m 6,3 km/h (2 Bft)
26.03.2015 00:58 5,6 C 4,4 C 95 % 1008,2 hPa 0,0 l/m 0 min 0 min 0 W/m 8,4 km/h (2 Bft)
26.03.2015 01:00 5,6 C 4,4 C 95 % 1008,2 hPa 0,0 l/m 0 min 0 min 0 W/m 8,4 km/h (2 Bft)
26.03.2015 01:02 5,6 C 4,4 C 95 % 1008,3 hPa 0,0 l/m 0 min 0 min 0 W/m 6,3 km/h (2 Bft)
26.03.2015 01:04 5,6 C 4,4 C 95 % 1008,2 hPa 0,0 l/m 0 min 0 min 0 W/m 8,4 km/h (2 Bft)
26.03.2015 01:06 5,6 C 4,4 C 95 % 1008,1 hPa 0,0 l/m 0 min 0 min 0 W/m 6,3 km/h (2 Bft)
26.03.2015 01:08 5,6 C 4,4 C 95 % 1008,2 hPa 0,0 l/m 0 min 0 min 0 W/m 8,4 km/h (2 Bft)
26.03.2015 01:10 5,6 C 4,4 C 95 % 1008,2 hPa 0,0 l/m 0 min 0 min 0 W/m 8,4 km/h (2 Bft)
26.03.2015 01:12 5,6 C 4,4 C 95 % 1008,2 hPa 0,0 l/m 0 min 0 min 0 W/m 6,3 km/h (2 Bft)
26.03.2015 01:14 5,6 C 4,4 C 95 % 1008,3 hPa 0,0 l/m 0 min 0 min 0 W/m 6,3 km/h (2 Bft)
26.03.2015 01:16 5,6 C 4,4 C 95 % 1008,2 hPa 0,0 l/m 0 min 0 min 0 W/m 10,5 km/h (2 Bft)
26.03.2015 01:18 5,6 C 4,4 C 95 % 1008,2 hPa 0,0 l/m 0 min 0 min 0 W/m 14,6 km/h (3 Bft)
26.03.2015 01:20 5,6 C 4,4 C 95 % 1008,2 hPa 0,0 l/m 0 min 0 min 0 W/m 8,4 km/h (2 Bft)
26.03.2015 01:22 5,6 C 4,4 C 95 % 1008,2 hPa 0,0 l/m 0 min 0 min 0 W/m 8,4 km/h (2 Bft)
26.03.2015 01:24 5,6 C 4,4 C 95 % 1008,2 hPa 0,0 l/m 0 min 0 min 0 W/m 6,3 km/h (2 Bft)
26.03.2015 01:26 5,6 C 4,4 C 95 % 1008,2 hPa 0,0 l/m 0 min 0 min 0 W/m 6,3 km/h (2 Bft)
26.03.2015 01:28 5,6 C 4,4 C 95 % 1008,2 hPa 0,0 l/m 0 min 0 min 0 W/m 10,5 km/h (2 Bft)
26.03.2015 01:30 5,6 C 4,4 C 95 % 1008,2 hPa 0,0 l/m 0 min 0 min 0 W/m 10,5 km/h (2 Bft)
26.03.2015 01:32 5,6 C 4,4 C 95 % 1008,2 hPa 0,0 l/m 0 min 0 min 0 W/m 14,6 km/h (3 Bft)
26.03.2015 01:34 5,6 C 4,4 C 95 % 1008,2 hPa 0,0 l/m 0 min 0 min 0 W/m 18,8 km/h (3 Bft)
26.03.2015 01:36 5,6 C 4,4 C 95 % 1008,2 hPa 0,0 l/m 0 min 0 min 0 W/m 14,6 km/h (3 Bft)
26.03.2015 01:38 5,6 C 4,4 C 95 % 1008,3 hPa 0,0 l/m 0 min 0 min 0 W/m 10,5 km/h (2 Bft)
26.03.2015 01:40 5,5 C 4,4 C 95 % 1008,3 hPa 0,0 l/m 0 min 0 min 0 W/m 6,3 km/h (2 Bft)
26.03.2015 01:42 5,5 C 4,4 C 95 % 1008,2 hPa 0,0 l/m 0 min 0 min 0 W/m 14,6 km/h (3 Bft)
26.03.2015 01:44 5,5 C 4,4 C 95 % 1008,2 hPa 0,0 l/m 0 min 0 min 0 W/m 12,6 km/h (3 Bft)
26.03.2015 01:46 5,5 C 4,4 C 95 % 1008,2 hPa 0,0 l/m 0 min 0 min 0 W/m 12,6 km/h (3 Bft)
26.03.2015 01:48 5,5 C 4,4 C 95 % 1008,2 hPa 0,0 l/m 0 min 0 min 0 W/m 12,6 km/h (3 Bft)
26.03.2015 01:50 5,5 C 4,4 C 95 % 1008,2 hPa 0,0 l/m 0 min 0 min 0 W/m 10,5 km/h (2 Bft)
26.03.2015 01:52 5,5 C 4,4 C 95 % 1008,2 hPa 0,0 l/m 0 min 0 min 0 W/m 6,3 km/h (2 Bft)
26.03.2015 01:54 5,5 C 4,4 C 95 % 1008,3 hPa 0,0 l/m 0 min 0 min 0 W/m 6,3 km/h (2 Bft)
26.03.2015 01:56 5,4 C 4,4 C 95 % 1008,3 hPa 0,0 l/m 0 min 0 min 0 W/m 10,5 km/h (2 Bft)
26.03.2015 01:58 5,4 C 4,4 C 95 % 1008,3 hPa 0,0 l/m 0 min 0 min 0 W/m 10,5 km/h (2 Bft)
26.03.2015 02:00 5,4 C 4,4 C 95 % 1008,2 hPa 0,0 l/m 0 min 0 min 0 W/m 14,6 km/h (3 Bft)
26.03.2015 02:02 5,4 C 4,4 C 95 % 1008,3 hPa 0,0 l/m 0 min 0 min 0 W/m 14,6 km/h (3 Bft)
26.03.2015 02:04 5,4 C 4,4 C 95 % 1008,2 hPa 0,0 l/m 0 min 0 min 0 W/m 8,4 km/h (2 Bft)
26.03.2015 02:06 5,4 C 4,4 C 95 % 1008,2 hPa 0,0 l/m 0 min 0 min 0 W/m 12,6 km/h (3 Bft)
26.03.2015 02:08 5,4 C 4,4 C 95 % 1008,2 hPa 0,0 l/m 0 min 0 min 0 W/m 8,4 km/h (2 Bft)
26.03.2015 02:10 5,4 C 3,9 C 95 % 1008,2 hPa 0,0 l/m 0 min 0 min 0 W/m 10,5 km/h (2 Bft)
26.03.2015 02:12 5,4 C 3,9 C 95 % 1008,2 hPa 0,0 l/m 0 min 0 min 0 W/m 8,4 km/h (2 Bft)
26.03.2015 02:14 5,4 C 3,9 C 95 % 1008,3 hPa 0,0 l/m 0 min 0 min 0 W/m 6,3 km/h (2 Bft)
26.03.2015 02:16 5,4 C 4,4 C 95 % 1008,2 hPa 0,0 l/m 0 min 0 min 0 W/m 4,2 km/h (1 Bft)
26.03.2015 02:18 5,4 C 4,4 C 95 % 1008,1 hPa 0,0 l/m 0 min 0 min 0 W/m 4,2 km/h (1 Bft)
26.03.2015 02:20 5,4 C 3,9 C 95 % 1008,2 hPa 0,0 l/m 0 min 0 min 0 W/m 12,6 km/h (3 Bft)
26.03.2015 02:22 5,4 C 3,9 C 95 % 1008,2 hPa 0,0 l/m 0 min 0 min 0 W/m 10,5 km/h (2 Bft)
26.03.2015 02:24 5,4 C 3,9 C 95 % 1008,2 hPa 0,0 l/m 0 min 0 min 0 W/m 8,4 km/h (2 Bft)
26.03.2015 02:26 5,4 C 3,9 C 95 % 1008,2 hPa 0,0 l/m 0 min 0 min 0 W/m 10,5 km/h (2 Bft)
26.03.2015 02:28 5,4 C 3,9 C 95 % 1008,2 hPa 0,0 l/m 0 min 0 min 0 W/m 6,3 km/h (2 Bft)
26.03.2015 02:30 5,4 C 3,9 C 95 % 1008,1 hPa 0,0 l/m 0 min 0 min 0 W/m 14,6 km/h (3 Bft)
26.03.2015 02:32 5,4 C 3,9 C 95 % 1008,2 hPa 0,0 l/m 0 min 0 min 0 W/m 10,5 km/h (2 Bft)
26.03.2015 02:34 5,3 C 3,9 C 95 % 1008,2 hPa 0,0 l/m 0 min 0 min 0 W/m 10,5 km/h (2 Bft)
26.03.2015 02:36 5,3 C 3,9 C 95 % 1008,2 hPa 0,0 l/m 0 min 0 min 0 W/m 10,5 km/h (2 Bft)
26.03.2015 02:38 5,3 C 3,9 C 95 % 1008,2 hPa 0,0 l/m 0 min 0 min 0 W/m 8,4 km/h (2 Bft)
26.03.2015 02:40 5,3 C 3,9 C 95 % 1008,2 hPa 0,0 l/m 0 min 0 min 0 W/m 10,5 km/h (2 Bft)
26.03.2015 02:42 5,3 C 3,9 C 95 % 1008,2 hPa 0,0 l/m 0 min 0 min 0 W/m 8,4 km/h (2 Bft)
26.03.2015 02:44 5,3 C 3,9 C 95 % 1008,1 hPa 0,0 l/m 0 min 0 min 0 W/m 6,3 km/h (2 Bft)
26.03.2015 02:46 5,3 C 3,9 C 95 % 1008,1 hPa 0,0 l/m 0 min 0 min 0 W/m 8,4 km/h (2 Bft)
26.03.2015 02:48 5,3 C 3,9 C 95 % 1008,2 hPa 0,0 l/m 0 min 0 min 0 W/m 12,6 km/h (3 Bft)
26.03.2015 02:50 5,3 C 3,9 C 95 % 1008,1 hPa 0,0 l/m 0 min 0 min 0 W/m 12,6 km/h (3 Bft)
26.03.2015 02:52 5,2 C 3,9 C 95 % 1008,1 hPa 0,0 l/m 0 min 0 min 0 W/m 8,4 km/h (2 Bft)
26.03.2015 02:54 5,2 C 3,9 C 95 % 1008,1 hPa 0,0 l/m 0 min 0 min 0 W/m 8,4 km/h (2 Bft)
26.03.2015 02:56 5,2 C 3,9 C 95 % 1008,1 hPa 0,0 l/m 0 min 0 min 0 W/m 8,4 km/h (2 Bft)
26.03.2015 02:58 5,2 C 3,9 C 95 % 1008,1 hPa 0,0 l/m 0 min 0 min 0 W/m 10,5 km/h (2 Bft)
26.03.2015 03:00 5,2 C 3,9 C 95 % 1008,1 hPa 0,0 l/m 0 min 0 min 0 W/m 6,3 km/h (2 Bft)
26.03.2015 03:02 5,2 C 3,9 C 94 % 1008,1 hPa 0,0 l/m 0 min 0 min 0 W/m 8,4 km/h (2 Bft)
26.03.2015 03:04 5,2 C 3,9 C 95 % 1008,1 hPa 0,0 l/m 0 min 0 min 0 W/m 6,3 km/h (2 Bft)
26.03.2015 03:06 5,2 C 3,9 C 94 % 1008,1 hPa 0,0 l/m 0 min 0 min 0 W/m 12,6 km/h (3 Bft)
26.03.2015 03:08 5,2 C 3,9 C 94 % 1008,1 hPa 0,0 l/m 0 min 0 min 0 W/m 8,4 km/h (2 Bft)
26.03.2015 03:10 5,2 C 3,9 C 94 % 1008,1 hPa 0,0 l/m 0 min 0 min 0 W/m 4,2 km/h (1 Bft)
26.03.2015 03:12 5,2 C 3,9 C 94 % 1008,1 hPa 0,0 l/m 0 min 0 min 0 W/m 4,2 km/h (1 Bft)
26.03.2015 03:14 5,2 C 3,9 C 94 % 1008,2 hPa 0,0 l/m 0 min 0 min 0 W/m 6,3 km/h (2 Bft)
26.03.2015 03:16 5,2 C 3,9 C 94 % 1008,1 hPa 0,0 l/m 0 min 0 min 0 W/m 6,3 km/h (2 Bft)
26.03.2015 03:18 5,2 C 3,9 C 94 % 1008,2 hPa 0,0 l/m 0 min 0 min 0 W/m 8,4 km/h (2 Bft)
26.03.2015 03:20 5,2 C 3,9 C 94 % 1008,2 hPa 0,0 l/m 0 min 0 min 0 W/m 10,5 km/h (2 Bft)
26.03.2015 03:22 5,1 C 3,9 C 94 % 1008,2 hPa 0,0 l/m 0 min 0 min 0 W/m 6,3 km/h (2 Bft)
26.03.2015 03:24 5,1 C 3,9 C 94 % 1008,2 hPa 0,0 l/m 0 min 0 min 0 W/m 6,3 km/h (2 Bft)
26.03.2015 03:26 5,1 C 3,9 C 94 % 1008,2 hPa 0,0 l/m 0 min 0 min 0 W/m 6,3 km/h (2 Bft)
26.03.2015 03:28 5,1 C 3,9 C 95 % 1008,2 hPa 0,0 l/m 0 min 0 min 0 W/m 6,3 km/h (2 Bft)
26.03.2015 03:30 5,1 C 3,9 C 95 % 1008,2 hPa 0,0 l/m 0 min 0 min 0 W/m 8,4 km/h (2 Bft)
26.03.2015 03:32 5,1 C 3,9 C 95 % 1008,2 hPa 0,0 l/m 0 min 0 min 0 W/m 10,5 km/h (2 Bft)
26.03.2015 03:34 5,1 C 3,9 C 95 % 1008,2 hPa 0,0 l/m 0 min 0 min 0 W/m 12,6 km/h (3 Bft)
26.03.2015 03:36 5,1 C 3,9 C 95 % 1008,1 hPa 0,0 l/m 0 min 0 min 0 W/m 8,4 km/h (2 Bft)
26.03.2015 03:38 5,1 C 3,9 C 95 % 1008,1 hPa 0,0 l/m 0 min 0 min 0 W/m 10,5 km/h (2 Bft)
26.03.2015 03:40 5,1 C 3,9 C 95 % 1008,2 hPa 0,0 l/m 0 min 0 min 0 W/m 10,5 km/h (2 Bft)
26.03.2015 03:42 5,1 C 3,9 C 95 % 1008,2 hPa 0,0 l/m 0 min 0 min 0 W/m 8,4 km/h (2 Bft)
26.03.2015 03:44 5,1 C 3,9 C 95 % 1008,2 hPa 0,0 l/m 0 min 0 min 0 W/m 8,4 km/h (2 Bft)
26.03.2015 03:46 5,0 C 3,9 C 95 % 1008,1 hPa 0,0 l/m 0 min 0 min 0 W/m 6,3 km/h (2 Bft)
26.03.2015 03:48 5,0 C 3,9 C 95 % 1008,1 hPa 0,0 l/m 0 min 0 min 0 W/m 8,4 km/h (2 Bft)
26.03.2015 03:50 5,0 C 3,9 C 95 % 1008,1 hPa 0,0 l/m 0 min 0 min 0 W/m 6,3 km/h (2 Bft)
26.03.2015 03:52 5,0 C 3,9 C 95 % 1008,1 hPa 0,0 l/m 0 min 0 min 0 W/m 8,4 km/h (2 Bft)
26.03.2015 03:54 5,0 C 3,9 C 95 % 1008,1 hPa 0,0 l/m 0 min 0 min 0 W/m 6,3 km/h (2 Bft)
26.03.2015 03:56 5,0 C 3,9 C 95 % 1008,1 hPa 0,0 l/m 0 min 0 min 0 W/m 6,3 km/h (2 Bft)
26.03.2015 03:58 5,0 C 3,9 C 95 % 1008,1 hPa 0,0 l/m 0 min 0 min 0 W/m 8,4 km/h (2 Bft)
26.03.2015 04:00 5,0 C 3,9 C 95 % 1008,1 hPa 0,0 l/m 0 min 0 min 0 W/m 6,3 km/h (2 Bft)
26.03.2015 04:03 5,0 C 3,9 C 94 % 1008,2 hPa 0,0 l/m 0 min 0 min 0 W/m 14,6 km/h (3 Bft)
26.03.2015 04:04 5,0 C 3,9 C 94 % 1008,2 hPa 0,0 l/m 0 min 0 min 0 W/m 8,4 km/h (2 Bft)
26.03.2015 04:08 4,9 C 3,9 C 94 % 1008,2 hPa 0,0 l/m 0 min 0 min 0 W/m 8,4 km/h (2 Bft)
26.03.2015 04:09 4,9 C 3,9 C 94 % 1008,3 hPa 0,0 l/m 0 min 0 min 0 W/m 10,5 km/h (2 Bft)
26.03.2015 04:10 4,9 C 3,9 C 94 % 1008,3 hPa 0,0 l/m 0 min 0 min 0 W/m 10,5 km/h (2 Bft)
26.03.2015 04:15 4,9 C 3,9 C 94 % 1008,3 hPa 0,0 l/m 0 min 0 min 0 W/m 10,5 km/h (2 Bft)
26.03.2015 04:20 4,9 C 3,9 C 94 % 1008,4 hPa 0,0 l/m 0 min 0 min 0 W/m 16,7 km/h (3 Bft)
26.03.2015 04:25 4,9 C 3,9 C 94 % 1008,5 hPa 0,0 l/m 0 min 0 min 0 W/m 12,6 km/h (3 Bft)
26.03.2015 04:30 4,9 C 3,9 C 94 % 1008,5 hPa 0,0 l/m 0 min 0 min 0 W/m 14,6 km/h (3 Bft)
26.03.2015 04:35 4,8 C 3,3 C 94 % 1008,6 hPa 0,0 l/m 0 min 0 min 0 W/m 12,6 km/h (3 Bft)
26.03.2015 04:40 4,8 C 3,3 C 94 % 1008,5 hPa 0,0 l/m 0 min 0 min 0 W/m 16,7 km/h (3 Bft)
26.03.2015 04:45 4,8 C 3,3 C 94 % 1008,5 hPa 0,0 l/m 0 min 0 min 0 W/m 8,4 km/h (2 Bft)
26.03.2015 04:50 4,8 C 3,3 C 94 % 1008,5 hPa 0,0 l/m 0 min 0 min 0 W/m 10,5 km/h (2 Bft)
26.03.2015 04:55 4,8 C 3,9 C 94 % 1008,5 hPa 0,0 l/m 0 min 0 min 0 W/m 8,4 km/h (2 Bft)
26.03.2015 05:00 4,8 C 3,9 C 94 % 1008,6 hPa 0,0 l/m 0 min 0 min 0 W/m 10,5 km/h (2 Bft)
26.03.2015 05:05 4,7 C 3,9 C 94 % 1008,6 hPa 0,0 l/m 0 min 0 min 0 W/m 10,5 km/h (2 Bft)
26.03.2015 05:10 4,7 C 3,9 C 94 % 1008,6 hPa 0,0 l/m 0 min 0 min 0 W/m 16,7 km/h (3 Bft)
26.03.2015 05:15 4,7 C 3,9 C 94 % 1008,5 hPa 0,0 l/m 0 min 0 min 0 W/m 8,4 km/h (2 Bft)
26.03.2015 05:20 4,7 C 3,9 C 94 % 1008,6 hPa 0,0 l/m 0 min 0 min 0 W/m 10,5 km/h (2 Bft)
26.03.2015 05:25 4,7 C 3,9 C 94 % 1008,5 hPa 0,0 l/m 0 min 0 min 0 W/m 8,4 km/h (2 Bft)
26.03.2015 05:30 4,7 C 3,9 C 94 % 1008,5 hPa 0,0 l/m 0 min 0 min 0 W/m 10,5 km/h (2 Bft)
26.03.2015 05:35 4,7 C 3,3 C 94 % 1008,5 hPa 0,0 l/m 0 min 0 min 0 W/m 8,4 km/h (2 Bft)
26.03.2015 05:40 4,7 C 3,3 C 94 % 1008,6 hPa 0,0 l/m 0 min 0 min 0 W/m 8,4 km/h (2 Bft)
26.03.2015 05:45 4,7 C 3,3 C 94 % 1008,6 hPa 0,0 l/m 0 min 0 min 0 W/m 8,4 km/h (2 Bft)
26.03.2015 05:50 4,7 C 3,3 C 94 % 1008,6 hPa 0,0 l/m 0 min 0 min 0 W/m 10,5 km/h (2 Bft)
26.03.2015 05:55 4,6 C 3,3 C 93 % 1008,6 hPa 0,0 l/m 0 min 0 min 0 W/m 8,4 km/h (2 Bft)
26.03.2015 06:00 4,6 C 3,3 C 93 % 1008,7 hPa 0,0 l/m 0 min 0 min 0 W/m 14,6 km/h (3 Bft)
26.03.2015 06:05 4,5 C 3,3 C 93 % 1008,7 hPa 0,0 l/m 0 min 0 min 0 W/m 12,6 km/h (3 Bft)
26.03.2015 06:10 4,4 C 3,3 C 93 % 1008,7 hPa 0,0 l/m 0 min 0 min 0 W/m 12,6 km/h (3 Bft)
26.03.2015 06:15 4,4 C 3,3 C 93 % 1008,7 hPa 0,0 l/m 0 min 0 min 0 W/m 12,6 km/h (3 Bft)
26.03.2015 06:20 4,4 C 3,3 C 93 % 1008,8 hPa 0,0 l/m 0 min 0 min 0 W/m 10,5 km/h (2 Bft)
26.03.2015 06:22 4,4 C 3,3 C 93 % 1008,8 hPa 0,0 l/m 0 min 0 min 0 W/m 8,4 km/h (2 Bft)
26.03.2015 06:24 4,4 C 3,3 C 93 % 1008,8 hPa 0,0 l/m 0 min 0 min 0 W/m 16,7 km/h (3 Bft)
26.03.2015 06:26 4,4 C 3,3 C 93 % 1008,8 hPa 0,0 l/m 0 min 0 min 0 W/m 14,6 km/h (3 Bft)
26.03.2015 06:28 4,4 C 3,3 C 93 % 1008,9 hPa 0,0 l/m 0 min 0 min 1 W/m 12,6 km/h (3 Bft)
26.03.2015 06:30 4,5 C 3,3 C 93 % 1008,8 hPa 0,0 l/m 0 min 0 min 5 W/m 12,6 km/h (3 Bft)
26.03.2015 06:32 4,4 C 3,3 C 93 % 1008,8 hPa 0,0 l/m 0 min 0 min 5 W/m 12,6 km/h (3 Bft)
26.03.2015 06:34 4,4 C 3,3 C 93 % 1008,8 hPa 0,0 l/m 0 min 0 min 5 W/m 14,6 km/h (3 Bft)
26.03.2015 06:36 4,5 C 3,3 C 93 % 1008,8 hPa 0,0 l/m 0 min 0 min 6 W/m 10,5 km/h (2 Bft)
26.03.2015 06:38 4,5 C 3,3 C 93 % 1008,9 hPa 0,0 l/m 0 min 0 min 7 W/m 10,5 km/h (2 Bft)
26.03.2015 06:40 4,4 C 3,3 C 93 % 1008,8 hPa 0,0 l/m 0 min 0 min 7 W/m 8,4 km/h (2 Bft)
26.03.2015 06:42 4,4 C 3,3 C 93 % 1008,9 hPa 0,0 l/m 0 min 0 min 8 W/m 12,6 km/h (3 Bft)
26.03.2015 06:44 4,4 C 3,3 C 93 % 1008,8 hPa 0,0 l/m 0 min 0 min 9 W/m 10,5 km/h (2 Bft)
26.03.2015 06:46 4,4 C 3,3 C 93 % 1008,8 hPa 0,0 l/m 0 min 0 min 9 W/m 10,5 km/h (2 Bft)
26.03.2015 06:48 4,4 C 3,3 C 93 % 1009,0 hPa 0,0 l/m 0 min 0 min 12 W/m 12,6 km/h (3 Bft)
26.03.2015 06:50 4,4 C 3,3 C 93 % 1008,9 hPa 0,0 l/m 0 min 0 min 15 W/m 10,5 km/h (2 Bft)
26.03.2015 06:52 4,4 C 3,3 C 93 % 1009,0 hPa 0,0 l/m 0 min 0 min 17 W/m 10,5 km/h (2 Bft)
26.03.2015 06:54 4,4 C 3,3 C 93 % 1009,0 hPa 0,0 l/m 0 min 0 min 19 W/m 16,7 km/h (3 Bft)
26.03.2015 06:56 4,4 C 3,3 C 93 % 1009,0 hPa 0,0 l/m 0 min 0 min 20 W/m 16,7 km/h (3 Bft)
26.03.2015 06:58 4,4 C 3,3 C 94 % 1009,0 hPa 0,0 l/m 0 min 0 min 21 W/m 12,6 km/h (3 Bft)
26.03.2015 07:00 4,4 C 3,3 C 94 % 1009,0 hPa 0,0 l/m 0 min 0 min 24 W/m 10,5 km/h (2 Bft)
26.03.2015 07:02 4,4 C 3,3 C 94 % 1008,9 hPa 0,0 l/m 0 min 0 min 25 W/m 8,4 km/h (2 Bft)
26.03.2015 07:04 4,4 C 3,3 C 94 % 1009,0 hPa 0,0 l/m 0 min 0 min 26 W/m 8,4 km/h (2 Bft)
26.03.2015 07:06 4,4 C 3,3 C 94 % 1009,0 hPa 0,0 l/m 0 min 0 min 28 W/m 10,5 km/h (2 Bft)
26.03.2015 07:08 4,4 C 3,3 C 94 % 1009,0 hPa 0,0 l/m 0 min 0 min 30 W/m 8,4 km/h (2 Bft)
26.03.2015 07:10 4,4 C 3,3 C 94 % 1009,1 hPa 0,0 l/m 0 min 0 min 31 W/m 10,5 km/h (2 Bft)
26.03.2015 07:12 4,4 C 3,3 C 94 % 1009,0 hPa 0,0 l/m 0 min 0 min 32 W/m 8,4 km/h (2 Bft)
26.03.2015 07:14 4,4 C 3,3 C 94 % 1009,1 hPa 0,0 l/m 0 min 0 min 34 W/m 12,6 km/h (3 Bft)
26.03.2015 07:16 4,4 C 3,3 C 94 % 1009,0 hPa 0,0 l/m 0 min 0 min 36 W/m 14,6 km/h (3 Bft)
26.03.2015 07:18 4,4 C 3,3 C 94 % 1009,1 hPa 0,0 l/m 0 min 0 min 39 W/m 16,7 km/h (3 Bft)
26.03.2015 07:20 4,4 C 3,3 C 94 % 1009,0 hPa 0,0 l/m 0 min 0 min 41 W/m 10,5 km/h (2 Bft)
26.03.2015 07:22 4,4 C 3,3 C 94 % 1009,0 hPa 0,0 l/m 0 min 0 min 40 W/m 16,7 km/h (3 Bft)
26.03.2015 07:24 4,4 C 3,9 C 94 % 1009,1 hPa 0,0 l/m 0 min 0 min 40 W/m 14,6 km/h (3 Bft)
26.03.2015 07:26 4,4 C 3,9 C 94 % 1009,1 hPa 0,0 l/m 0 min 0 min 41 W/m 12,6 km/h (3 Bft)
26.03.2015 07:28 4,4 C 3,9 C 94 % 1009,1 hPa 0,0 l/m 0 min 0 min 40 W/m 10,5 km/h (2 Bft)
26.03.2015 07:30 4,3 C 3,9 C 94 % 1009,1 hPa 0,0 l/m 0 min 0 min 43 W/m 14,6 km/h (3 Bft)
26.03.2015 07:32 4,3 C 3,9 C 94 % 1009,2 hPa 0,0 l/m 0 min 0 min 47 W/m 10,5 km/h (2 Bft)
26.03.2015 07:34 4,3 C 3,9 C 94 % 1009,1 hPa 0,0 l/m 0 min 0 min 48 W/m 14,6 km/h (3 Bft)
26.03.2015 07:36 4,4 C 3,9 C 94 % 1009,0 hPa 0,0 l/m 0 min 0 min 49 W/m 12,6 km/h (3 Bft)
26.03.2015 07:38 4,3 C 3,9 C 94 % 1009,1 hPa 0,0 l/m 0 min 0 min 46 W/m 12,6 km/h (3 Bft)
26.03.2015 07:40 4,3 C 3,9 C 94 % 1009,1 hPa 0,0 l/m 0 min 0 min 55 W/m 12,6 km/h (3 Bft)
26.03.2015 07:42 4,3 C 3,9 C 94 % 1009,1 hPa 0,0 l/m 0 min 0 min 57 W/m 10,5 km/h (2 Bft)
26.03.2015 07:44 4,3 C 3,9 C 94 % 1009,2 hPa 0,0 l/m 0 min 0 min 53 W/m 12,6 km/h (3 Bft)
26.03.2015 07:46 4,3 C 3,9 C 94 % 1009,2 hPa 0,0 l/m 0 min 0 min 48 W/m 16,7 km/h (3 Bft)
26.03.2015 07:48 4,3 C 3,9 C 94 % 1009,2 hPa 0,0 l/m 0 min 0 min 52 W/m 14,6 km/h (3 Bft)
26.03.2015 07:50 4,3 C 3,9 C 94 % 1009,2 hPa 0,0 l/m 0 min 0 min 61 W/m 12,6 km/h (3 Bft)
26.03.2015 07:52 4,3 C 3,9 C 94 % 1009,2 hPa 0,0 l/m 0 min 0 min 65 W/m 8,4 km/h (2 Bft)
26.03.2015 07:54 4,3 C 3,9 C 94 % 1009,2 hPa 0,0 l/m 0 min 0 min 68 W/m 8,4 km/h (2 Bft)
26.03.2015 07:56 4,3 C 3,9 C 94 % 1009,1 hPa 0,0 l/m 0 min 0 min 71 W/m 6,3 km/h (2 Bft)
26.03.2015 07:58 4,3 C 3,9 C 94 % 1009,1 hPa 0,0 l/m 0 min 0 min 80 W/m 10,5 km/h (2 Bft)
26.03.2015 08:00 4,3 C 3,9 C 94 % 1009,1 hPa 0,0 l/m 0 min 0 min 90 W/m 10,5 km/h (2 Bft)
26.03.2015 08:02 4,3 C 4,4 C 94 % 1009,1 hPa 0,0 l/m 0 min 0 min 100 W/m 10,5 km/h (2 Bft)
26.03.2015 08:04 4,4 C 4,4 C 94 % 1009,1 hPa 0,0 l/m 0 min 0 min 108 W/m 6,3 km/h (2 Bft)
26.03.2015 08:06 4,4 C 4,4 C 94 % 1009,1 hPa 0,0 l/m 0 min 0 min 110 W/m 8,4 km/h (2 Bft)
26.03.2015 08:08 4,4 C 4,4 C 94 % 1009,1 hPa 0,0 l/m 0 min 0 min 118 W/m 14,6 km/h (3 Bft)
26.03.2015 08:10 4,4 C 4,4 C 94 % 1009,1 hPa 0,0 l/m 0 min 0 min 131 W/m 8,4 km/h (2 Bft)
26.03.2015 08:12 4,5 C 4,4 C 94 % 1009,2 hPa 0,0 l/m 2 min 0 min 143 W/m 6,3 km/h (2 Bft)
26.03.2015 08:14 4,6 C 5,0 C 94 % 1009,1 hPa 0,0 l/m 2 min 0 min 152 W/m 10,5 km/h (2 Bft)
26.03.2015 08:16 4,6 C 5,0 C 94 % 1009,1 hPa 0,0 l/m 2 min 0 min 162 W/m 12,6 km/h (3 Bft)
26.03.2015 08:18 4,6 C 5,0 C 95 % 1009,1 hPa 0,0 l/m 2 min 0 min 162 W/m 14,6 km/h (3 Bft)
26.03.2015 08:20 4,7 C 5,0 C 95 % 1009,0 hPa 0,0 l/m 2 min 0 min 156 W/m 10,5 km/h (2 Bft)
26.03.2015 08:22 4,7 C 5,0 C 94 % 1009,1 hPa 0,0 l/m 2 min 0 min 152 W/m 10,5 km/h (2 Bft)
26.03.2015 08:24 4,7 C 5,0 C 94 % 1009,1 hPa 0,0 l/m 2 min 0 min 151 W/m 10,5 km/h (2 Bft)
26.03.2015 08:26 4,7 C 5,0 C 94 % 1009,0 hPa 0,0 l/m 0 min 0 min 149 W/m 10,5 km/h (2 Bft)
26.03.2015 08:28 4,8 C 5,0 C 94 % 1009,0 hPa 0,0 l/m 0 min 0 min 149 W/m 8,4 km/h (2 Bft)
26.03.2015 08:30 4,8 C 5,0 C 94 % 1009,0 hPa 0,0 l/m 0 min 0 min 152 W/m 8,4 km/h (2 Bft)
26.03.2015 08:32 4,8 C 5,0 C 94 % 1009,0 hPa 0,0 l/m 0 min 0 min 155 W/m 10,5 km/h (2 Bft)
26.03.2015 08:34 4,9 C 5,0 C 94 % 1009,0 hPa 0,0 l/m 0 min 0 min 150 W/m 12,6 km/h (3 Bft)
26.03.2015 08:36 4,9 C 5,0 C 94 % 1009,0 hPa 0,0 l/m 0 min 0 min 142 W/m 10,5 km/h (2 Bft)
26.03.2015 08:38 4,9 C 5,0 C 94 % 1009,0 hPa 0,0 l/m 0 min 0 min 133 W/m 10,5 km/h (2 Bft)
26.03.2015 08:40 4,9 C 5,0 C 94 % 1009,1 hPa 0,0 l/m 0 min 0 min 153 W/m 14,6 km/h (3 Bft)
26.03.2015 08:42 4,9 C 5,0 C 94 % 1009,1 hPa 0,0 l/m 0 min 0 min 167 W/m 10,5 km/h (2 Bft)
26.03.2015 08:44 5,0 C 5,0 C 94 % 1009,0 hPa 0,0 l/m 2 min 0 min 177 W/m 14,6 km/h (3 Bft)
26.03.2015 08:46 5,0 C 5,0 C 94 % 1009,0 hPa 0,0 l/m 0 min 0 min 164 W/m 10,5 km/h (2 Bft)
26.03.2015 08:48 5,0 C 5,0 C 94 % 1009,0 hPa 0,0 l/m 0 min 0 min 165 W/m 14,6 km/h (3 Bft)
26.03.2015 08:50 5,1 C 5,0 C 94 % 1009,0 hPa 0,0 l/m 0 min 0 min 163 W/m 12,6 km/h (3 Bft)
26.03.2015 08:52 5,1 C 5,0 C 94 % 1009,1 hPa 0,0 l/m 0 min 0 min 175 W/m 8,4 km/h (2 Bft)
26.03.2015 08:54 5,1 C 5,0 C 94 % 1009,1 hPa 0,0 l/m 2 min 0 min 191 W/m 14,6 km/h (3 Bft)
26.03.2015 08:56 5,1 C 5,6 C 94 % 1009,0 hPa 0,0 l/m 2 min 0 min 200 W/m 10,5 km/h (2 Bft)
26.03.2015 08:58 5,1 C 5,6 C 94 % 1009,1 hPa 0,0 l/m 2 min 0 min 234 W/m 14,6 km/h (3 Bft)
26.03.2015 09:00 5,2 C 5,6 C 94 % 1009,0 hPa 0,0 l/m 2 min 0 min 257 W/m 12,6 km/h (3 Bft)
26.03.2015 09:02 5,2 C 5,6 C 94 % 1009,0 hPa 0,0 l/m 2 min 0 min 251 W/m 14,6 km/h (3 Bft)
26.03.2015 09:04 5,3 C 5,6 C 93 % 1009,0 hPa 0,0 l/m 2 min 0 min 255 W/m 20,9 km/h (4 Bft)
26.03.2015 09:06 5,3 C 5,6 C 93 % 1009,0 hPa 0,0 l/m 2 min 0 min 285 W/m 14,6 km/h (3 Bft)
26.03.2015 09:08 5,3 C 5,6 C 93 % 1008,9 hPa 0,0 l/m 2 min 0 min 400 W/m 10,5 km/h (2 Bft)
26.03.2015 09:10 5,4 C 5,6 C 93 % 1008,9 hPa 0,0 l/m 2 min 0 min 475 W/m 14,6 km/h (3 Bft)
26.03.2015 09:12 5,5 C 5,6 C 93 % 1008,9 hPa 0,0 l/m 2 min 0 min 521 W/m 8,4 km/h (2 Bft)
26.03.2015 09:14 5,6 C 5,6 C 93 % 1008,9 hPa 0,0 l/m 2 min 0 min 286 W/m 14,6 km/h (3 Bft)
26.03.2015 09:16 5,6 C 5,6 C 93 % 1008,8 hPa 0,0 l/m 2 min 0 min 462 W/m 12,6 km/h (3 Bft)
26.03.2015 09:18 5,7 C 5,6 C 93 % 1008,8 hPa 0,0 l/m 2 min 0 min 476 W/m 12,6 km/h (3 Bft)
26.03.2015 09:20 5,8 C 6,1 C 92 % 1008,8 hPa 0,0 l/m 2 min 0 min 476 W/m 8,4 km/h (2 Bft)
26.03.2015 09:22 5,9 C 6,1 C 92 % 1008,8 hPa 0,0 l/m 2 min 0 min 271 W/m 14,6 km/h (3 Bft)
26.03.2015 09:24 5,9 C 6,1 C 92 % 1008,8 hPa 0,0 l/m 2 min 0 min 422 W/m 12,6 km/h (3 Bft)
26.03.2015 09:26 6,1 C 6,1 C 91 % 1008,8 hPa 0,0 l/m 2 min 0 min 283 W/m 16,7 km/h (3 Bft)
26.03.2015 09:28 6,1 C 6,1 C 91 % 1008,8 hPa 0,0 l/m 2 min 0 min 424 W/m 20,9 km/h (4 Bft)
26.03.2015 09:30 6,2 C 6,1 C 90 % 1008,8 hPa 0,0 l/m 2 min 0 min 274 W/m 14,6 km/h (3 Bft)
26.03.2015 09:32 6,2 C 6,1 C 90 % 1008,8 hPa 0,0 l/m 2 min 0 min 312 W/m 16,7 km/h (3 Bft)
26.03.2015 09:34 6,3 C 6,1 C 89 % 1008,7 hPa 0,0 l/m 2 min 0 min 403 W/m 18,8 km/h (3 Bft)
26.03.2015 09:36 6,4 C 6,7 C 88 % 1008,7 hPa 0,0 l/m 2 min 0 min 377 W/m 14,6 km/h (3 Bft)
26.03.2015 09:38 6,4 C 6,1 C 87 % 1008,6 hPa 0,0 l/m 2 min 0 min 273 W/m 14,6 km/h (3 Bft)
26.03.2015 09:40 6,4 C 6,1 C 87 % 1008,6 hPa 0,0 l/m 2 min 0 min 335 W/m 23,0 km/h (4 Bft)
26.03.2015 09:42 6,4 C 6,1 C 86 % 1008,6 hPa 0,0 l/m 0 min 0 min 221 W/m 12,6 km/h (3 Bft)
26.03.2015 09:44 6,4 C 6,1 C 85 % 1008,6 hPa 0,0 l/m 0 min 0 min 193 W/m 16,7 km/h (3 Bft)
26.03.2015 09:46 6,4 C 6,1 C 84 % 1008,6 hPa 0,0 l/m 0 min 0 min 166 W/m 12,6 km/h (3 Bft)
26.03.2015 09:48 6,4 C 5,6 C 83 % 1008,7 hPa 0,0 l/m 0 min 0 min 133 W/m 18,8 km/h (3 Bft)
26.03.2015 09:50 6,4 C 5,6 C 82 % 1008,7 hPa 0,0 l/m 0 min 0 min 100 W/m 16,7 km/h (3 Bft)
26.03.2015 09:52 6,4 C 5,0 C 82 % 1008,7 hPa 0,0 l/m 0 min 0 min 78 W/m 16,7 km/h (3 Bft)
26.03.2015 09:54 6,4 C 5,0 C 82 % 1008,7 hPa 0,0 l/m 0 min 0 min 73 W/m 20,9 km/h (4 Bft)
26.03.2015 09:56 6,3 C 5,0 C 82 % 1008,7 hPa 0,0 l/m 0 min 0 min 81 W/m 16,7 km/h (3 Bft)
26.03.2015 09:58 6,3 C 5,0 C 82 % 1008,7 hPa 0,0 l/m 0 min 0 min 106 W/m 18,8 km/h (3 Bft)
26.03.2015 10:00 6,3 C 5,0 C 82 % 1008,6 hPa 0,0 l/m 0 min 0 min 148 W/m 16,7 km/h (3 Bft)
26.03.2015 10:02 6,3 C 5,6 C 82 % 1008,7 hPa 0,0 l/m 0 min 0 min 187 W/m 14,6 km/h (3 Bft)
26.03.2015 10:04 6,2 C 5,6 C 82 % 1008,7 hPa 0,0 l/m 0 min 0 min 253 W/m 16,7 km/h (3 Bft)
26.03.2015 10:06 6,3 C 6,1 C 83 % 1008,6 hPa 0,0 l/m 2 min 0 min 352 W/m 16,7 km/h (3 Bft)
26.03.2015 10:08 6,3 C 6,1 C 83 % 1008,6 hPa 0,0 l/m 2 min 0 min 373 W/m 18,8 km/h (3 Bft)
26.03.2015 10:10 6,3 C 6,7 C 83 % 1008,6 hPa 0,0 l/m 2 min 0 min 452 W/m 16,7 km/h (3 Bft)
26.03.2015 10:12 6,3 C 6,7 C 83 % 1008,6 hPa 0,0 l/m 2 min 0 min 439 W/m 18,8 km/h (3 Bft)
26.03.2015 10:14 6,4 C 6,7 C 83 % 1008,5 hPa 0,0 l/m 2 min 0 min 444 W/m 18,8 km/h (3 Bft)
26.03.2015 10:16 6,4 C 6,7 C 83 % 1008,5 hPa 0,0 l/m 2 min 0 min 359 W/m 16,7 km/h (3 Bft)
26.03.2015 10:18 6,4 C 6,7 C 82 % 1008,5 hPa 0,0 l/m 2 min 0 min 337 W/m 16,7 km/h (3 Bft)
26.03.2015 10:20 6,5 C 7,2 C 82 % 1008,5 hPa 0,0 l/m 2 min 0 min 352 W/m 8,4 km/h (2 Bft)
26.03.2015 10:22 6,6 C 7,2 C 82 % 1008,6 hPa 0,0 l/m 2 min 0 min 348 W/m 18,8 km/h (3 Bft)
26.03.2015 10:24 6,6 C 7,2 C 82 % 1008,6 hPa 0,0 l/m 2 min 0 min 370 W/m 14,6 km/h (3 Bft)
26.03.2015 10:26 6,7 C 6,7 C 81 % 1008,5 hPa 0,0 l/m 2 min 0 min 415 W/m 23,0 km/h (4 Bft)
26.03.2015 10:28 6,7 C 6,7 C 81 % 1008,5 hPa 0,0 l/m 2 min 0 min 377 W/m 25,1 km/h (4 Bft)
26.03.2015 10:30 6,7 C 6,7 C 80 % 1008,6 hPa 0,0 l/m 2 min 0 min 397 W/m 31,4 km/h (5 Bft)
26.03.2015 10:32 6,8 C 7,2 C 80 % 1008,5 hPa 0,0 l/m 2 min 0 min 368 W/m 16,7 km/h (3 Bft)
26.03.2015 10:34 6,8 C 7,2 C 80 % 1008,5 hPa 0,0 l/m 2 min 0 min 294 W/m 14,6 km/h (3 Bft)
26.03.2015 10:36 6,9 C 7,2 C 79 % 1008,5 hPa 0,0 l/m 0 min 0 min 254 W/m 16,7 km/h (3 Bft)
26.03.2015 10:38 6,9 C 6,7 C 78 % 1008,4 hPa 0,0 l/m 0 min 0 min 227 W/m 20,9 km/h (4 Bft)
26.03.2015 10:40 6,9 C 6,7 C 78 % 1008,4 hPa 0,0 l/m 0 min 0 min 200 W/m 16,7 km/h (3 Bft)
26.03.2015 10:42 6,9 C 6,7 C 77 % 1008,5 hPa 0,0 l/m 0 min 0 min 238 W/m 12,6 km/h (3 Bft)
26.03.2015 10:44 6,9 C 7,2 C 77 % 1008,4 hPa 0,0 l/m 0 min 0 min 261 W/m 12,6 km/h (3 Bft)
26.03.2015 10:46 6,9 C 7,2 C 78 % 1008,4 hPa 0,0 l/m 0 min 0 min 285 W/m 12,6 km/h (3 Bft)
26.03.2015 10:48 7,0 C 7,2 C 78 % 1008,5 hPa 0,0 l/m 2 min 0 min 321 W/m 18,8 km/h (3 Bft)
26.03.2015 10:50 7,0 C 7,2 C 77 % 1008,5 hPa 0,0 l/m 2 min 0 min 300 W/m 18,8 km/h (3 Bft)
26.03.2015 10:52 7,1 C 7,2 C 76 % 1008,4 hPa 0,0 l/m 2 min 0 min 320 W/m 18,8 km/h (3 Bft)
26.03.2015 10:54 7,1 C 7,2 C 75 % 1008,3 hPa 0,0 l/m 2 min 0 min 408 W/m 16,7 km/h (3 Bft)
26.03.2015 10:56 7,2 C 7,2 C 75 % 1008,3 hPa 0,0 l/m 2 min 0 min 402 W/m 16,7 km/h (3 Bft)
26.03.2015 10:58 7,2 C 7,2 C 75 % 1008,3 hPa 0,0 l/m 2 min 0 min 322 W/m 16,7 km/h (3 Bft)
26.03.2015 11:00 7,2 C 7,2 C 75 % 1008,2 hPa 0,0 l/m 0 min 0 min 273 W/m 20,9 km/h (4 Bft)
26.03.2015 11:02 7,3 C 6,7 C 75 % 1008,2 hPa 0,0 l/m 0 min 0 min 244 W/m 20,9 km/h (4 Bft)
26.03.2015 11:04 7,3 C 6,7 C 75 % 1008,2 hPa 0,0 l/m 0 min 0 min 241 W/m 20,9 km/h (4 Bft)
26.03.2015 11:06 7,3 C 7,2 C 75 % 1008,1 hPa 0,0 l/m 2 min 0 min 319 W/m 14,6 km/h (3 Bft)
26.03.2015 11:08 7,3 C 7,2 C 75 % 1008,1 hPa 0,0 l/m 2 min 0 min 401 W/m 18,8 km/h (3 Bft)
26.03.2015 11:10 7,3 C 7,2 C 75 % 1008,1 hPa 0,0 l/m 2 min 0 min 373 W/m 14,6 km/h (3 Bft)
26.03.2015 11:12 7,4 C 7,8 C 74 % 1008,1 hPa 0,0 l/m 2 min 0 min 429 W/m 27,2 km/h (4 Bft)
26.03.2015 11:14 7,4 C 7,8 C 74 % 1008,1 hPa 0,0 l/m 2 min 0 min 444 W/m 23,0 km/h (4 Bft)
26.03.2015 11:16 7,6 C 8,9 C 74 % 1008,0 hPa 0,0 l/m 2 min 0 min 790 W/m 20,9 km/h (4 Bft)
26.03.2015 11:18 7,7 C 8,3 C 74 % 1008,0 hPa 0,0 l/m 2 min 0 min 716 W/m 27,2 km/h (4 Bft)
26.03.2015 11:20 7,9 C 8,9 C 74 % 1007,9 hPa 0,0 l/m 2 min 0 min 642 W/m 14,6 km/h (3 Bft)
26.03.2015 11:22 8,1 C 9,4 C 74 % 1008,0 hPa 0,0 l/m 2 min 0 min 766 W/m 23,0 km/h (4 Bft)
26.03.2015 11:24 8,2 C 8,9 C 73 % 1008,0 hPa 0,0 l/m 2 min 0 min 503 W/m 14,6 km/h (3 Bft)
26.03.2015 11:26 8,3 C 8,9 C 73 % 1008,0 hPa 0,0 l/m 2 min 0 min 342 W/m 25,1 km/h (4 Bft)
26.03.2015 11:28 8,3 C 8,3 C 72 % 1008,0 hPa 0,0 l/m 2 min 0 min 356 W/m 18,8 km/h (3 Bft)
26.03.2015 11:30 8,4 C 8,3 C 71 % 1008,0 hPa 0,0 l/m 2 min 0 min 420 W/m 23,0 km/h (4 Bft)
26.03.2015 11:32 8,4 C 8,3 C 71 % 1008,0 hPa 0,0 l/m 2 min 0 min 329 W/m 18,8 km/h (3 Bft)
26.03.2015 11:34 8,4 C 8,3 C 70 % 1008,0 hPa 0,0 l/m 2 min 0 min 322 W/m 16,7 km/h (3 Bft)
26.03.2015 11:36 8,4 C 8,3 C 71 % 1008,0 hPa 0,0 l/m 2 min 0 min 316 W/m 20,9 km/h (4 Bft)
26.03.2015 11:38 8,4 C 8,3 C 71 % 1008,0 hPa 0,0 l/m 0 min 0 min 292 W/m 18,8 km/h (3 Bft)
26.03.2015 11:40 8,4 C 8,3 C 71 % 1008,0 hPa 0,0 l/m 2 min 0 min 339 W/m 10,5 km/h (2 Bft)
26.03.2015 11:42 8,5 C 8,3 C 71 % 1007,9 hPa 0,0 l/m 2 min 0 min 383 W/m 23,0 km/h (4 Bft)
26.03.2015 11:44 8,4 C 8,3 C 71 % 1008,0 hPa 0,0 l/m 2 min 0 min 339 W/m 23,0 km/h (4 Bft)
26.03.2015 11:46 8,4 C 7,8 C 70 % 1007,9 hPa 0,0 l/m 2 min 0 min 331 W/m 23,0 km/h (4 Bft)
26.03.2015 11:48 8,4 C 8,3 C 69 % 1007,9 hPa 0,0 l/m 2 min 0 min 360 W/m 23,0 km/h (4 Bft)
26.03.2015 11:50 8,4 C 8,3 C 70 % 1007,9 hPa 0,0 l/m 2 min 0 min 405 W/m 18,8 km/h (3 Bft)
26.03.2015 11:52 8,4 C 8,3 C 70 % 1007,8 hPa 0,0 l/m 2 min 0 min 487 W/m 18,8 km/h (3 Bft)
26.03.2015 11:54 8,4 C 8,9 C 69 % 1007,8 hPa 0,0 l/m 2 min 0 min 699 W/m 14,6 km/h (3 Bft)
26.03.2015 11:56 8,5 C 8,9 C 70 % 1007,8 hPa 0,0 l/m 2 min 0 min 630 W/m 14,6 km/h (3 Bft)
26.03.2015 11:58 8,6 C 8,9 C 69 % 1007,8 hPa 0,0 l/m 2 min 0 min 630 W/m 20,9 km/h (4 Bft)
26.03.2015 12:00 8,6 C 8,9 C 69 % 1007,7 hPa 0,0 l/m 2 min 0 min 522 W/m 20,9 km/h (4 Bft)
26.03.2015 12:02 8,7 C 9,4 C 69 % 1007,7 hPa 0,0 l/m 2 min 0 min 411 W/m 25,1 km/h (4 Bft)
26.03.2015 12:06 8,7 C 9,4 C 68 % 1007,6 hPa 0,0 l/m 2 min 0 min 418 W/m 23,0 km/h (4 Bft)
26.03.2015 12:08 8,8 C 8,9 C 69 % 1007,6 hPa 0,0 l/m 2 min 0 min 370 W/m 27,2 km/h (4 Bft)
26.03.2015 12:10 8,8 C 8,9 C 68 % 1007,6 hPa 0,0 l/m 2 min 0 min 365 W/m 20,9 km/h (4 Bft)
26.03.2015 12:12 8,8 C 8,3 C 68 % 1007,6 hPa 0,0 l/m 0 min 0 min 321 W/m 18,8 km/h (3 Bft)
26.03.2015 12:14 8,8 C 8,3 C 68 % 1007,5 hPa 0,0 l/m 0 min 0 min 318 W/m 18,8 km/h (3 Bft)
26.03.2015 12:16 8,7 C 8,3 C 67 % 1007,6 hPa 0,0 l/m 2 min 0 min 334 W/m 16,7 km/h (3 Bft)
26.03.2015 12:18 8,7 C 8,9 C 67 % 1007,5 hPa 0,0 l/m 2 min 0 min 339 W/m 18,8 km/h (3 Bft)
26.03.2015 12:20 8,7 C 8,9 C 68 % 1007,5 hPa 0,0 l/m 2 min 0 min 439 W/m 16,7 km/h (3 Bft)
26.03.2015 12:22 8,7 C 8,9 C 67 % 1007,4 hPa 0,0 l/m 2 min 0 min 462 W/m 25,1 km/h (4 Bft)
26.03.2015 12:24 8,7 C 8,3 C 67 % 1007,4 hPa 0,0 l/m 2 min 0 min 403 W/m 25,1 km/h (4 Bft)
26.03.2015 12:26 8,7 C 8,9 C 67 % 1007,4 hPa 0,0 l/m 2 min 0 min 366 W/m 14,6 km/h (3 Bft)
26.03.2015 12:28 8,7 C 8,9 C 68 % 1007,3 hPa 0,0 l/m 0 min 0 min 308 W/m 12,6 km/h (3 Bft)
26.03.2015 12:30 8,8 C 8,9 C 68 % 1007,3 hPa 0,0 l/m 0 min 0 min 286 W/m 25,1 km/h (4 Bft)
26.03.2015 12:32 8,8 C 8,9 C 67 % 1007,2 hPa 0,0 l/m 0 min 0 min 274 W/m 25,1 km/h (4 Bft)
26.03.2015 12:34 8,7 C 8,3 C 66 % 1007,3 hPa 0,0 l/m 0 min 0 min 279 W/m 23,0 km/h (4 Bft)
26.03.2015 12:36 8,7 C 8,9 C 66 % 1007,3 hPa 0,0 l/m 2 min 0 min 328 W/m 14,6 km/h (3 Bft)
26.03.2015 12:38 8,8 C 8,9 C 66 % 1007,3 hPa 0,0 l/m 2 min 0 min 380 W/m 16,7 km/h (3 Bft)
26.03.2015 12:40 8,8 C 9,4 C 66 % 1007,2 hPa 0,0 l/m 2 min 0 min 396 W/m 20,9 km/h (4 Bft)
26.03.2015 12:42 8,8 C 9,4 C 66 % 1007,2 hPa 0,0 l/m 2 min 0 min 470 W/m 35,6 km/h (5 Bft)
26.03.2015 12:44 8,9 C 8,9 C 65 % 1007,2 hPa 0,0 l/m 2 min 0 min 486 W/m 31,4 km/h (5 Bft)
26.03.2015 12:46 8,9 C 9,4 C 65 % 1007,2 hPa 0,0 l/m 2 min 0 min 435 W/m 25,1 km/h (4 Bft)
26.03.2015 12:48 8,9 C 9,4 C 65 % 1007,2 hPa 0,0 l/m 2 min 0 min 381 W/m 14,6 km/h (3 Bft)
26.03.2015 12:50 8,9 C 9,4 C 65 % 1007,1 hPa 0,0 l/m 2 min 0 min 348 W/m 20,9 km/h (4 Bft)
26.03.2015 12:52 9,0 C 8,9 C 65 % 1007,1 hPa 0,0 l/m 2 min 0 min 329 W/m 25,1 km/h (4 Bft)
26.03.2015 12:54 9,0 C 8,9 C 65 % 1007,1 hPa 0,0 l/m 0 min 0 min 312 W/m 18,8 km/h (3 Bft)
26.03.2015 12:56 9,0 C 8,9 C 66 % 1007,0 hPa 0,0 l/m 0 min 0 min 295 W/m 18,8 km/h (3 Bft)
26.03.2015 12:58 9,0 C 8,9 C 66 % 1007,0 hPa 0,0 l/m 0 min 0 min 278 W/m 20,9 km/h (4 Bft)
26.03.2015 13:00 9,0 C 8,9 C 66 % 1007,1 hPa 0,0 l/m 0 min 0 min 268 W/m 20,9 km/h (4 Bft)
26.03.2015 13:02 9,0 C 8,9 C 66 % 1006,9 hPa 0,0 l/m 0 min 0 min 262 W/m 14,6 km/h (3 Bft)
26.03.2015 13:04 9,1 C 8,9 C 66 % 1006,9 hPa 0,0 l/m 0 min 0 min 252 W/m 16,7 km/h (3 Bft)
26.03.2015 13:06 9,0 C 8,9 C 65 % 1006,8 hPa 0,0 l/m 0 min 0 min 244 W/m 25,1 km/h (4 Bft)
26.03.2015 13:08 9,0 C 8,3 C 63 % 1006,8 hPa 0,0 l/m 0 min 0 min 245 W/m 23,0 km/h (4 Bft)
26.03.2015 13:10 8,9 C 8,3 C 63 % 1006,7 hPa 0,0 l/m 0 min 0 min 255 W/m 23,0 km/h (4 Bft)
26.03.2015 13:12 8,9 C 8,9 C 63 % 1006,7 hPa 0,0 l/m 0 min 0 min 287 W/m 16,7 km/h (3 Bft)
26.03.2015 13:14 8,9 C 8,9 C 64 % 1006,7 hPa 0,0 l/m 2 min 0 min 349 W/m 14,6 km/h (3 Bft)
26.03.2015 13:16 9,0 C 9,4 C 64 % 1006,7 hPa 0,0 l/m 2 min 0 min 423 W/m 14,6 km/h (3 Bft)
26.03.2015 13:18 9,1 C 10,0 C 66 % 1006,6 hPa 0,0 l/m 2 min 0 min 477 W/m 16,7 km/h (3 Bft)
26.03.2015 13:20 9,1 C 10,0 C 65 % 1006,6 hPa 0,0 l/m 2 min 0 min 430 W/m 20,9 km/h (4 Bft)
26.03.2015 13:22 9,2 C 10,0 C 65 % 1006,6 hPa 0,0 l/m 2 min 0 min 368 W/m 27,2 km/h (4 Bft)
26.03.2015 13:24 9,3 C 9,4 C 62 % 1006,6 hPa 0,0 l/m 0 min 0 min 269 W/m 29,3 km/h (5 Bft)
26.03.2015 13:26 9,2 C 8,9 C 61 % 1006,7 hPa 0,0 l/m 0 min 0 min 252 W/m 25,1 km/h (4 Bft)
26.03.2015 13:28 9,2 C 8,9 C 61 % 1006,6 hPa 0,0 l/m 0 min 0 min 252 W/m 33,5 km/h (5 Bft)
26.03.2015 13:30 9,2 C 8,3 C 61 % 1006,6 hPa 0,0 l/m 0 min 0 min 256 W/m 31,4 km/h (5 Bft)
26.03.2015 13:32 9,1 C 8,3 C 60 % 1006,6 hPa 0,0 l/m 0 min 0 min 260 W/m 25,1 km/h (4 Bft)
26.03.2015 13:34 9,1 C 8,3 C 61 % 1006,6 hPa 0,0 l/m 0 min 0 min 267 W/m 27,2 km/h (4 Bft)
26.03.2015 13:36 9,1 C 8,3 C 61 % 1006,6 hPa 0,0 l/m 0 min 0 min 256 W/m 23,0 km/h (4 Bft)
26.03.2015 13:38 9,0 C 8,3 C 61 % 1006,5 hPa 0,0 l/m 0 min 0 min 227 W/m 27,2 km/h (4 Bft)
26.03.2015 13:40 9,0 C 8,3 C 61 % 1006,6 hPa 0,0 l/m 0 min 0 min 200 W/m 18,8 km/h (3 Bft)
26.03.2015 13:42 9,0 C 8,3 C 61 % 1006,5 hPa 0,0 l/m 0 min 0 min 190 W/m 14,6 km/h (3 Bft)
26.03.2015 13:44 9,0 C 8,3 C 62 % 1006,5 hPa 0,0 l/m 0 min 0 min 199 W/m 23,0 km/h (4 Bft)
26.03.2015 13:46 8,9 C 8,3 C 62 % 1006,5 hPa 0,0 l/m 0 min 0 min 211 W/m 18,8 km/h (3 Bft)
26.03.2015 13:48 8,9 C 8,3 C 62 % 1006,4 hPa 0,0 l/m 0 min 0 min 211 W/m 31,4 km/h (5 Bft)
26.03.2015 13:50 8,9 C 8,3 C 62 % 1006,5 hPa 0,0 l/m 0 min 0 min 201 W/m 20,9 km/h (4 Bft)
26.03.2015 13:52 8,9 C 8,3 C 62 % 1006,4 hPa 0,0 l/m 0 min 0 min 183 W/m 20,9 km/h (4 Bft)
26.03.2015 13:54 8,9 C 7,8 C 62 % 1006,4 hPa 0,0 l/m 0 min 0 min 162 W/m 18,8 km/h (3 Bft)
26.03.2015 13:56 8,8 C 7,8 C 62 % 1006,4 hPa 0,0 l/m 0 min 0 min 144 W/m 16,7 km/h (3 Bft)
26.03.2015 13:58 8,8 C 7,8 C 62 % 1006,3 hPa 0,0 l/m 0 min 0 min 129 W/m 16,7 km/h (3 Bft)
26.03.2015 14:00 8,8 C 7,8 C 62 % 1006,4 hPa 0,0 l/m 0 min 0 min 122 W/m 27,2 km/h (4 Bft)
26.03.2015 14:02 8,8 C 7,8 C 61 % 1006,4 hPa 0,0 l/m 0 min 0 min 120 W/m 20,9 km/h (4 Bft)
26.03.2015 14:04 8,8 C 7,8 C 62 % 1006,5 hPa 0,0 l/m 0 min 0 min 113 W/m 18,8 km/h (3 Bft)
26.03.2015 14:06 8,7 C 7,8 C 62 % 1006,5 hPa 0,0 l/m 0 min 0 min 105 W/m 27,2 km/h (4 Bft)
26.03.2015 14:08 8,7 C 7,2 C 62 % 1006,5 hPa 0,0 l/m 0 min 0 min 99 W/m 33,5 km/h (5 Bft)
26.03.2015 14:10 8,6 C 7,2 C 61 % 1006,4 hPa 0,0 l/m 0 min 0 min 95 W/m 31,4 km/h (5 Bft)
26.03.2015 14:12 8,6 C 7,2 C 62 % 1006,5 hPa 0,0 l/m 0 min 0 min 95 W/m 14,6 km/h (3 Bft)
26.03.2015 14:14 8,6 C 7,2 C 62 % 1006,4 hPa 0,0 l/m 0 min 0 min 98 W/m 23,0 km/h (4 Bft)
26.03.2015 14:16 8,6 C 7,2 C 62 % 1006,4 hPa 0,0 l/m 0 min 0 min 103 W/m 18,8 km/h (3 Bft)
26.03.2015 14:18 8,6 C 7,2 C 63 % 1006,4 hPa 0,0 l/m 0 min 0 min 107 W/m 23,0 km/h (4 Bft)
26.03.2015 14:20 8,5 C 7,2 C 62 % 1006,4 hPa 0,0 l/m 0 min 0 min 111 W/m 20,9 km/h (4 Bft)
26.03.2015 14:22 8,5 C 7,2 C 62 % 1006,3 hPa 0,0 l/m 0 min 0 min 106 W/m 20,9 km/h (4 Bft)
26.03.2015 14:24 8,5 C 7,2 C 62 % 1006,2 hPa 0,0 l/m 0 min 0 min 97 W/m 27,2 km/h (4 Bft)
26.03.2015 14:26 8,5 C 7,2 C 61 % 1006,4 hPa 0,0 l/m 0 min 0 min 97 W/m 18,8 km/h (3 Bft)
26.03.2015 14:28 8,4 C 7,2 C 61 % 1006,3 hPa 0,0 l/m 0 min 0 min 95 W/m 31,4 km/h (5 Bft)
26.03.2015 14:30 8,4 C 7,2 C 61 % 1006,4 hPa 0,0 l/m 0 min 0 min 87 W/m 18,8 km/h (3 Bft)
26.03.2015 14:32 8,4 C 7,2 C 61 % 1006,3 hPa 0,0 l/m 0 min 0 min 82 W/m 20,9 km/h (4 Bft)
26.03.2015 14:34 8,4 C 6,7 C 60 % 1006,3 hPa 0,0 l/m 0 min 0 min 83 W/m 23,0 km/h (4 Bft)
26.03.2015 14:36 8,3 C 6,7 C 59 % 1006,3 hPa 0,0 l/m 0 min 0 min 78 W/m 27,2 km/h (4 Bft)
26.03.2015 14:38 8,3 C 6,7 C 61 % 1006,2 hPa 0,0 l/m 0 min 0 min 81 W/m 25,1 km/h (4 Bft)
26.03.2015 14:40 8,3 C 6,7 C 62 % 1006,2 hPa 0,0 l/m 0 min 0 min 87 W/m 18,8 km/h (3 Bft)
26.03.2015 14:42 8,2 C 6,7 C 62 % 1006,3 hPa 0,0 l/m 0 min 0 min 104 W/m 25,1 km/h (4 Bft)
26.03.2015 14:44 8,2 C 6,7 C 62 % 1006,3 hPa 0,0 l/m 0 min 0 min 118 W/m 43,9 km/h (6 Bft)
26.03.2015 14:46 8,1 C 6,7 C 60 % 1006,2 hPa 0,0 l/m 0 min 0 min 130 W/m 27,2 km/h (4 Bft)
26.03.2015 14:48 8,1 C 6,7 C 60 % 1006,2 hPa 0,0 l/m 0 min 0 min 142 W/m 16,7 km/h (3 Bft)
26.03.2015 14:50 8,1 C 6,7 C 60 % 1006,1 hPa 0,0 l/m 0 min 0 min 131 W/m 27,2 km/h (4 Bft)
26.03.2015 14:52 8,0 C 6,7 C 61 % 1006,1 hPa 0,0 l/m 0 min 0 min 115 W/m 18,8 km/h (3 Bft)
26.03.2015 14:54 8,0 C 6,7 C 61 % 1006,1 hPa 0,0 l/m 0 min 0 min 94 W/m 20,9 km/h (4 Bft)
26.03.2015 14:56 8,0 C 6,7 C 62 % 1006,1 hPa 0,0 l/m 0 min 0 min 82 W/m 23,0 km/h (4 Bft)
26.03.2015 14:58 8,0 C 6,7 C 62 % 1006,1 hPa 0,0 l/m 0 min 0 min 76 W/m 29,3 km/h (5 Bft)
26.03.2015 15:00 8,0 C 6,7 C 62 % 1006,0 hPa 0,0 l/m 0 min 0 min 74 W/m 37,7 km/h (5 Bft)
26.03.2015 15:02 7,9 C 6,7 C 62 % 1006,0 hPa 0,0 l/m 0 min 0 min 77 W/m 14,6 km/h (3 Bft)
26.03.2015 15:04 7,9 C 6,7 C 62 % 1006,0 hPa 0,0 l/m 0 min 0 min 85 W/m 18,8 km/h (3 Bft)
26.03.2015 15:06 7,9 C 6,7 C 63 % 1006,1 hPa 0,0 l/m 0 min 0 min 91 W/m 23,0 km/h (4 Bft)
26.03.2015 15:08 7,9 C 6,7 C 63 % 1006,0 hPa 0,0 l/m 0 min 2 min 92 W/m 35,6 km/h (5 Bft)
26.03.2015 15:10 7,9 C 6,7 C 64 % 1006,1 hPa 0,0 l/m 0 min 0 min 85 W/m 31,4 km/h (5 Bft)
26.03.2015 15:12 7,9 C 6,1 C 65 % 1006,1 hPa 0,0 l/m 0 min 2 min 76 W/m 29,3 km/h (5 Bft)
26.03.2015 15:14 7,8 C 5,6 C 66 % 1006,1 hPa 0,0 l/m 0 min 2 min 68 W/m 33,5 km/h (5 Bft)
26.03.2015 15:16 7,7 C 5,6 C 67 % 1006,2 hPa 0,0 l/m 0 min 2 min 61 W/m 43,9 km/h (6 Bft)
26.03.2015 15:18 7,6 C 5,0 C 68 % 1006,2 hPa 0,0 l/m 0 min 2 min 61 W/m 37,7 km/h (5 Bft)
26.03.2015 15:20 7,4 C 5,0 C 70 % 1006,2 hPa 0,0 l/m 0 min 2 min 69 W/m 43,9 km/h (6 Bft)
26.03.2015 15:22 7,3 C 4,4 C 71 % 1006,2 hPa 0,0 l/m 0 min 2 min 82 W/m 33,5 km/h (5 Bft)
26.03.2015 15:24 7,2 C 4,4 C 72 % 1006,2 hPa 0,0 l/m 0 min 2 min 92 W/m 25,1 km/h (4 Bft)
26.03.2015 15:26 7,1 C 5,0 C 73 % 1006,3 hPa 0,0 l/m 0 min 2 min 96 W/m 35,6 km/h (5 Bft)
26.03.2015 15:28 7,0 C 4,4 C 73 % 1006,3 hPa 0,0 l/m 0 min 2 min 91 W/m 31,4 km/h (5 Bft)
26.03.2015 15:30 6,8 C 4,4 C 73 % 1006,4 hPa 0,0 l/m 0 min 2 min 87 W/m 46,0 km/h (6 Bft)
26.03.2015 15:32 6,7 C 4,4 C 73 % 1006,3 hPa 0,0 l/m 0 min 2 min 84 W/m 31,4 km/h (5 Bft)
26.03.2015 15:34 6,6 C 4,4 C 73 % 1006,3 hPa 0,0 l/m 0 min 0 min 83 W/m 39,7 km/h (6 Bft)
26.03.2015 15:36 6,5 C 4,4 C 73 % 1006,3 hPa 0,0 l/m 0 min 0 min 87 W/m 37,7 km/h (5 Bft)
26.03.2015 15:38 6,4 C 4,4 C 73 % 1006,4 hPa 0,0 l/m 0 min 0 min 96 W/m 31,4 km/h (5 Bft)
26.03.2015 15:40 6,4 C 4,4 C 73 % 1006,3 hPa 0,0 l/m 0 min 2 min 92 W/m 35,6 km/h (5 Bft)
26.03.2015 15:42 6,4 C 4,4 C 73 % 1006,4 hPa 0,0 l/m 0 min 2 min 100 W/m 31,4 km/h (5 Bft)
26.03.2015 15:44 6,3 C 4,4 C 73 % 1006,4 hPa 0,0 l/m 0 min 2 min 126 W/m 20,9 km/h (4 Bft)
26.03.2015 15:46 6,3 C 4,4 C 74 % 1006,3 hPa 0,0 l/m 0 min 0 min 126 W/m 18,8 km/h (3 Bft)
26.03.2015 15:48 6,2 C 4,4 C 75 % 1006,4 hPa 0,0 l/m 0 min 2 min 127 W/m 33,5 km/h (5 Bft)
26.03.2015 15:50 6,2 C 4,4 C 75 % 1006,3 hPa 0,0 l/m 0 min 2 min 130 W/m 20,9 km/h (4 Bft)
26.03.2015 15:52 6,2 C 4,4 C 75 % 1006,3 hPa 0,0 l/m 0 min 2 min 142 W/m 27,2 km/h (4 Bft)
26.03.2015 15:54 6,2 C 4,4 C 75 % 1006,3 hPa 0,0 l/m 0 min 2 min 152 W/m 23,0 km/h (4 Bft)
26.03.2015 15:56 6,2 C 5,0 C 75 % 1006,3 hPa 0,0 l/m 0 min 0 min 158 W/m 14,6 km/h (3 Bft)
26.03.2015 15:58 6,2 C 5,0 C 76 % 1006,3 hPa 0,0 l/m 0 min 2 min 147 W/m 20,9 km/h (4 Bft)
26.03.2015 16:00 6,2 C 5,0 C 75 % 1006,3 hPa 0,0 l/m 0 min 2 min 139 W/m 20,9 km/h (4 Bft)
26.03.2015 16:02 6,2 C 5,6 C 76 % 1006,4 hPa 0,0 l/m 0 min 2 min 151 W/m 8,4 km/h (2 Bft)
26.03.2015 16:04 6,2 C 5,6 C 76 % 1006,4 hPa 0,0 l/m 0 min 0 min 157 W/m 16,7 km/h (3 Bft)
26.03.2015 16:06 6,3 C 6,1 C 76 % 1006,4 hPa 0,0 l/m 0 min 0 min 171 W/m 18,8 km/h (3 Bft)
26.03.2015 16:08 6,3 C 6,1 C 76 % 1006,4 hPa 0,0 l/m 0 min 0 min 172 W/m 20,9 km/h (4 Bft)
26.03.2015 16:10 6,4 C 6,1 C 76 % 1006,4 hPa 0,0 l/m 0 min 0 min 162 W/m 43,9 km/h (6 Bft)
26.03.2015 16:12 6,4 C 6,1 C 76 % 1006,5 hPa 0,0 l/m 0 min 2 min 146 W/m 18,8 km/h (3 Bft)
26.03.2015 16:14 6,5 C 6,1 C 77 % 1006,5 hPa 0,0 l/m 0 min 2 min 144 W/m 27,2 km/h (4 Bft)
26.03.2015 16:16 6,5 C 6,1 C 76 % 1006,4 hPa 0,0 l/m 0 min 2 min 137 W/m 16,7 km/h (3 Bft)
26.03.2015 16:18 6,6 C 6,1 C 76 % 1006,5 hPa 0,0 l/m 0 min 2 min 122 W/m 18,8 km/h (3 Bft)
26.03.2015 16:20 6,6 C 5,6 C 76 % 1006,3 hPa 0,0 l/m 0 min 2 min 114 W/m 18,8 km/h (3 Bft)
26.03.2015 16:22 6,6 C 5,6 C 76 % 1006,4 hPa 0,0 l/m 0 min 2 min 107 W/m 12,6 km/h (3 Bft)
26.03.2015 16:24 6,7 C 5,6 C 77 % 1006,3 hPa 0,0 l/m 0 min 2 min 107 W/m 35,6 km/h (5 Bft)
26.03.2015 16:26 6,7 C 5,6 C 77 % 1006,3 hPa 0,0 l/m 0 min 2 min 116 W/m 27,2 km/h (4 Bft)
26.03.2015 16:28 6,7 C 5,0 C 76 % 1006,3 hPa 0,0 l/m 0 min 0 min 117 W/m 33,5 km/h (5 Bft)
26.03.2015 16:30 6,7 C 5,0 C 76 % 1006,2 hPa 0,0 l/m 0 min 0 min 109 W/m 29,3 km/h (5 Bft)
26.03.2015 16:32 6,6 C 5,0 C 76 % 1006,3 hPa 0,0 l/m 0 min 0 min 99 W/m 37,7 km/h (5 Bft)
26.03.2015 16:34 6,6 C 5,0 C 76 % 1006,3 hPa 0,0 l/m 0 min 0 min 92 W/m 25,1 km/h (4 Bft)
26.03.2015 16:36 6,6 C 5,0 C 77 % 1006,3 hPa 0,0 l/m 0 min 0 min 98 W/m 35,6 km/h (5 Bft)
26.03.2015 16:38 6,5 C 5,0 C 77 % 1006,3 hPa 0,0 l/m 0 min 0 min 97 W/m 31,4 km/h (5 Bft)
26.03.2015 16:40 6,5 C 5,0 C 77 % 1006,3 hPa 0,0 l/m 0 min 2 min 90 W/m 29,3 km/h (5 Bft)
26.03.2015 16:42 6,4 C 5,0 C 77 % 1006,3 hPa 0,0 l/m 0 min 0 min 99 W/m 27,2 km/h (4 Bft)
26.03.2015 16:44 6,4 C 5,0 C 77 % 1006,3 hPa 0,0 l/m 0 min 2 min 94 W/m 33,5 km/h (5 Bft)
26.03.2015 16:46 6,4 C 5,0 C 78 % 1006,3 hPa 0,0 l/m 0 min 2 min 85 W/m 37,7 km/h (5 Bft)
26.03.2015 16:48 6,4 C 4,4 C 79 % 1006,3 hPa 0,0 l/m 0 min 2 min 81 W/m 31,4 km/h (5 Bft)
26.03.2015 16:50 6,3 C 4,4 C 79 % 1006,3 hPa 0,0 l/m 0 min 2 min 78 W/m 25,1 km/h (4 Bft)
26.03.2015 16:52 6,3 C 4,4 C 80 % 1006,3 hPa 0,0 l/m 0 min 2 min 73 W/m 23,0 km/h (4 Bft)
26.03.2015 16:54 6,2 C 4,4 C 81 % 1006,4 hPa 0,0 l/m 0 min 2 min 57 W/m 29,3 km/h (5 Bft)
26.03.2015 16:56 6,2 C 3,9 C 81 % 1006,3 hPa 0,2 l/m 0 min 2 min 44 W/m 23,0 km/h (4 Bft)
26.03.2015 16:58 6,1 C 3,9 C 82 % 1006,2 hPa 0,0 l/m 0 min 2 min 39 W/m 16,7 km/h (3 Bft)
26.03.2015 17:00 6,1 C 3,9 C 82 % 1006,3 hPa 0,0 l/m 0 min 2 min 37 W/m 18,8 km/h (3 Bft)
26.03.2015 17:02 6,0 C 3,9 C 82 % 1006,3 hPa 0,0 l/m 0 min 2 min 38 W/m 35,6 km/h (5 Bft)
26.03.2015 17:04 5,9 C 3,3 C 83 % 1006,3 hPa 0,0 l/m 0 min 2 min 32 W/m 29,3 km/h (5 Bft)
26.03.2015 17:06 5,8 C 3,3 C 83 % 1006,3 hPa 0,0 l/m 0 min 0 min 30 W/m 27,2 km/h (4 Bft)
26.03.2015 17:08 5,8 C 3,3 C 83 % 1006,2 hPa 0,0 l/m 0 min 2 min 32 W/m 23,0 km/h (4 Bft)
26.03.2015 17:10 5,7 C 3,3 C 84 % 1006,2 hPa 0,0 l/m 0 min 2 min 32 W/m 31,4 km/h (5 Bft)
26.03.2015 17:12 5,6 C 3,3 C 84 % 1006,2 hPa 0,0 l/m 0 min 0 min 33 W/m 25,1 km/h (4 Bft)
26.03.2015 17:14 5,5 C 3,3 C 85 % 1006,2 hPa 0,0 l/m 0 min 0 min 33 W/m 18,8 km/h (3 Bft)
26.03.2015 17:16 5,5 C 3,3 C 85 % 1006,2 hPa 0,0 l/m 0 min 0 min 28 W/m 20,9 km/h (4 Bft)
26.03.2015 17:18 5,4 C 3,3 C 86 % 1006,2 hPa 0,0 l/m 0 min 0 min 24 W/m 25,1 km/h (4 Bft)
26.03.2015 17:20 5,4 C 3,3 C 86 % 1006,2 hPa 0,0 l/m 0 min 0 min 21 W/m 25,1 km/h (4 Bft)
26.03.2015 17:22 5,3 C 3,3 C 86 % 1006,2 hPa 0,0 l/m 0 min 0 min 21 W/m 16,7 km/h (3 Bft)
26.03.2015 17:24 5,3 C 3,3 C 86 % 1006,2 hPa 0,0 l/m 0 min 0 min 21 W/m 18,8 km/h (3 Bft)
26.03.2015 17:26 5,3 C 3,3 C 87 % 1006,2 hPa 0,0 l/m 0 min 0 min 25 W/m 20,9 km/h (4 Bft)
26.03.2015 17:28 5,2 C 3,3 C 87 % 1006,2 hPa 0,0 l/m 0 min 0 min 28 W/m 27,2 km/h (4 Bft)
26.03.2015 17:30 5,2 C 3,3 C 87 % 1006,2 hPa 0,0 l/m 0 min 2 min 31 W/m 20,9 km/h (4 Bft)
26.03.2015 17:32 5,2 C 3,3 C 88 % 1006,1 hPa 0,0 l/m 0 min 0 min 30 W/m 23,0 km/h (4 Bft)
26.03.2015 17:34 5,1 C 3,3 C 88 % 1006,2 hPa 0,0 l/m 0 min 2 min 26 W/m 23,0 km/h (4 Bft)
26.03.2015 17:36 5,1 C 3,3 C 88 % 1006,2 hPa 0,0 l/m 0 min 2 min 25 W/m 27,2 km/h (4 Bft)
26.03.2015 17:38 5,1 C 3,3 C 88 % 1006,2 hPa 0,0 l/m 0 min 0 min 27 W/m 23,0 km/h (4 Bft)
26.03.2015 17:40 5,1 C 3,3 C 88 % 1006,2 hPa 0,0 l/m 0 min 0 min 27 W/m 27,2 km/h (4 Bft)
26.03.2015 17:42 5,0 C 3,3 C 89 % 1006,2 hPa 0,0 l/m 0 min 2 min 24 W/m 23,0 km/h (4 Bft)
26.03.2015 17:44 5,0 C 3,3 C 89 % 1006,2 hPa 0,0 l/m 0 min 2 min 19 W/m 25,1 km/h (4 Bft)
26.03.2015 17:46 4,9 C 3,3 C 89 % 1006,1 hPa 0,0 l/m 0 min 2 min 18 W/m 14,6 km/h (3 Bft)
26.03.2015 17:48 4,9 C 3,3 C 89 % 1006,1 hPa 0,0 l/m 0 min 0 min 19 W/m 25,1 km/h (4 Bft)
26.03.2015 17:50 4,9 C 3,3 C 89 % 1006,1 hPa 0,0 l/m 0 min 2 min 22 W/m 23,0 km/h (4 Bft)
26.03.2015 17:52 4,9 C 3,3 C 89 % 1006,1 hPa 0,0 l/m 0 min 0 min 24 W/m 31,4 km/h (5 Bft)
26.03.2015 17:54 4,9 C 3,3 C 90 % 1006,2 hPa 0,0 l/m 0 min 0 min 17 W/m 23,0 km/h (4 Bft)
26.03.2015 17:56 4,9 C 3,3 C 90 % 1006,2 hPa 0,0 l/m 0 min 0 min 11 W/m 16,7 km/h (3 Bft)
26.03.2015 17:58 4,9 C 3,3 C 90 % 1006,1 hPa 0,0 l/m 0 min 0 min 11 W/m 23,0 km/h (4 Bft)
26.03.2015 18:00 4,9 C 3,3 C 90 % 1006,1 hPa 0,0 l/m 0 min 0 min 12 W/m 18,8 km/h (3 Bft)
26.03.2015 18:02 4,8 C 3,3 C 90 % 1006,1 hPa 0,0 l/m 0 min 0 min 14 W/m 20,9 km/h (4 Bft)
26.03.2015 18:06 4,8 C 3,3 C 90 % 1006,1 hPa 0,0 l/m 0 min 0 min 14 W/m 27,2 km/h (4 Bft)
26.03.2015 18:08 4,8 C 3,3 C 90 % 1006,1 hPa 0,0 l/m 0 min 0 min 14 W/m 27,2 km/h (4 Bft)
26.03.2015 18:10 4,8 C 3,3 C 90 % 1006,2 hPa 0,0 l/m 0 min 0 min 14 W/m 20,9 km/h (4 Bft)
26.03.2015 18:12 4,8 C 3,3 C 91 % 1006,1 hPa 0,0 l/m 0 min 0 min 13 W/m 18,8 km/h (3 Bft)
26.03.2015 18:14 4,8 C 3,3 C 91 % 1006,2 hPa 0,0 l/m 0 min 2 min 12 W/m 18,8 km/h (3 Bft)
26.03.2015 18:16 4,8 C 3,3 C 91 % 1006,1 hPa 0,0 l/m 0 min 2 min 12 W/m 16,7 km/h (3 Bft)
26.03.2015 18:18 4,8 C 3,3 C 91 % 1006,1 hPa 0,2 l/m 0 min 2 min 14 W/m 16,7 km/h (3 Bft)
26.03.2015 18:20 4,8 C 3,3 C 91 % 1006,1 hPa 0,0 l/m 0 min 2 min 11 W/m 16,7 km/h (3 Bft)
26.03.2015 18:22 4,8 C 3,3 C 91 % 1006,1 hPa 0,0 l/m 0 min 2 min 8 W/m 18,8 km/h (3 Bft)
26.03.2015 18:24 4,8 C 3,3 C 91 % 1006,1 hPa 0,0 l/m 0 min 2 min 7 W/m 23,0 km/h (4 Bft)
26.03.2015 18:26 4,8 C 3,3 C 91 % 1006,1 hPa 0,0 l/m 0 min 2 min 5 W/m 20,9 km/h (4 Bft)
26.03.2015 18:28 4,8 C 3,3 C 91 % 1006,1 hPa 0,0 l/m 0 min 2 min 5 W/m 18,8 km/h (3 Bft)
26.03.2015 18:30 4,8 C 3,3 C 91 % 1006,1 hPa 0,0 l/m 0 min 2 min 5 W/m 14,6 km/h (3 Bft)
26.03.2015 18:32 4,8 C 3,3 C 91 % 1006,1 hPa 0,0 l/m 0 min 2 min 5 W/m 23,0 km/h (4 Bft)
26.03.2015 18:34 4,8 C 3,3 C 91 % 1006,1 hPa 0,0 l/m 0 min 2 min 5 W/m 23,0 km/h (4 Bft)
26.03.2015 18:36 4,8 C 3,3 C 91 % 1006,1 hPa 0,0 l/m 0 min 2 min 5 W/m 16,7 km/h (3 Bft)
26.03.2015 18:38 4,9 C 3,3 C 92 % 1006,1 hPa 0,0 l/m 0 min 2 min 6 W/m 23,0 km/h (4 Bft)
26.03.2015 18:40 4,9 C 3,3 C 92 % 1006,1 hPa 0,0 l/m 0 min 2 min 7 W/m 16,7 km/h (3 Bft)
26.03.2015 18:42 4,9 C 3,3 C 92 % 1006,1 hPa 0,0 l/m 0 min 2 min 7 W/m 16,7 km/h (3 Bft)
26.03.2015 18:44 4,9 C 3,3 C 92 % 1006,2 hPa 0,0 l/m 0 min 2 min 7 W/m 20,9 km/h (4 Bft)
26.03.2015 18:46 4,9 C 3,3 C 92 % 1006,2 hPa 0,0 l/m 0 min 2 min 5 W/m 10,5 km/h (2 Bft)
26.03.2015 18:48 4,9 C 3,3 C 92 % 1006,1 hPa 0,0 l/m 0 min 2 min 0 W/m 12,6 km/h (3 Bft)
26.03.2015 18:50 4,9 C 3,3 C 92 % 1006,2 hPa 0,0 l/m 0 min 2 min 0 W/m 16,7 km/h (3 Bft)
26.03.2015 18:52 4,9 C 3,3 C 92 % 1006,1 hPa 0,0 l/m 0 min 2 min 0 W/m 16,7 km/h (3 Bft)
26.03.2015 18:54 4,9 C 3,3 C 92 % 1006,1 hPa 0,0 l/m 0 min 2 min 0 W/m 20,9 km/h (4 Bft)
26.03.2015 18:56 4,9 C 3,3 C 92 % 1006,1 hPa 0,0 l/m 0 min 2 min 0 W/m 20,9 km/h (4 Bft)
26.03.2015 18:58 5,0 C 3,3 C 92 % 1006,2 hPa 0,0 l/m 0 min 2 min 0 W/m 14,6 km/h (3 Bft)
26.03.2015 19:00 5,0 C 3,3 C 92 % 1006,2 hPa 0,2 l/m 0 min 2 min 0 W/m 18,8 km/h (3 Bft)
26.03.2015 19:02 5,0 C 3,3 C 92 % 1006,2 hPa 0,0 l/m 0 min 2 min 0 W/m 14,6 km/h (3 Bft)
26.03.2015 19:04 5,0 C 3,9 C 93 % 1006,2 hPa 0,0 l/m 0 min 2 min 0 W/m 12,6 km/h (3 Bft)
26.03.2015 19:06 5,0 C 3,9 C 93 % 1006,2 hPa 0,0 l/m 0 min 2 min 0 W/m 8,4 km/h (2 Bft)
26.03.2015 19:08 5,0 C 3,9 C 93 % 1006,3 hPa 0,0 l/m 0 min 2 min 0 W/m 12,6 km/h (3 Bft)
26.03.2015 19:10 5,1 C 3,9 C 93 % 1006,3 hPa 0,0 l/m 0 min 0 min 0 W/m 14,6 km/h (3 Bft)
26.03.2015 19:12 5,1 C 3,9 C 93 % 1006,3 hPa 0,0 l/m 0 min 0 min 0 W/m 12,6 km/h (3 Bft)
26.03.2015 19:14 5,1 C 3,9 C 93 % 1006,3 hPa 0,0 l/m 0 min 0 min 0 W/m 14,6 km/h (3 Bft)
26.03.2015 19:16 5,1 C 3,9 C 93 % 1006,3 hPa 0,0 l/m 0 min 2 min 0 W/m 23,0 km/h (4 Bft)
26.03.2015 19:18 5,1 C 3,9 C 93 % 1006,3 hPa 0,0 l/m 0 min 2 min 0 W/m 14,6 km/h (3 Bft)
26.03.2015 19:20 5,1 C 3,9 C 93 % 1006,2 hPa 0,0 l/m 0 min 2 min 0 W/m 12,6 km/h (3 Bft)
26.03.2015 19:22 5,1 C 3,9 C 93 % 1006,2 hPa 0,0 l/m 0 min 2 min 0 W/m 23,0 km/h (4 Bft)
26.03.2015 19:24 5,1 C 3,9 C 93 % 1006,3 hPa 0,0 l/m 0 min 2 min 0 W/m 16,7 km/h (3 Bft)
26.03.2015 19:26 5,1 C 3,9 C 93 % 1006,2 hPa 0,2 l/m 0 min 2 min 0 W/m 27,2 km/h (4 Bft)
26.03.2015 19:28 5,1 C 3,9 C 93 % 1006,3 hPa 0,0 l/m 0 min 2 min 0 W/m 23,0 km/h (4 Bft)
26.03.2015 19:30 5,1 C 3,9 C 93 % 1006,3 hPa 0,0 l/m 0 min 2 min 0 W/m 14,6 km/h (3 Bft)
26.03.2015 19:32 5,1 C 3,9 C 93 % 1006,3 hPa 0,0 l/m 0 min 2 min 0 W/m 20,9 km/h (4 Bft)
26.03.2015 19:34 5,1 C 3,9 C 93 % 1006,3 hPa 0,0 l/m 0 min 2 min 0 W/m 20,9 km/h (4 Bft)
26.03.2015 19:36 5,1 C 3,9 C 93 % 1006,3 hPa 0,2 l/m 0 min 2 min 0 W/m 14,6 km/h (3 Bft)
26.03.2015 19:38 5,1 C 3,9 C 93 % 1006,2 hPa 0,0 l/m 0 min 2 min 0 W/m 25,1 km/h (4 Bft)
26.03.2015 19:40 5,1 C 3,9 C 93 % 1006,3 hPa 0,0 l/m 0 min 2 min 0 W/m 16,7 km/h (3 Bft)
26.03.2015 19:42 5,1 C 3,9 C 94 % 1006,3 hPa 0,0 l/m 0 min 2 min 0 W/m 18,8 km/h (3 Bft)
26.03.2015 19:44 5,1 C 3,9 C 94 % 1006,3 hPa 0,0 l/m 0 min 2 min 0 W/m 23,0 km/h (4 Bft)
26.03.2015 19:46 5,1 C 3,9 C 94 % 1006,3 hPa 0,2 l/m 0 min 2 min 0 W/m 14,6 km/h (3 Bft)
26.03.2015 19:48 5,1 C 3,9 C 94 % 1006,3 hPa 0,0 l/m 0 min 2 min 0 W/m 14,6 km/h (3 Bft)
26.03.2015 19:50 5,1 C 3,9 C 94 % 1006,3 hPa 0,0 l/m 0 min 2 min 0 W/m 23,0 km/h (4 Bft)
26.03.2015 19:52 5,1 C 3,9 C 94 % 1006,3 hPa 0,0 l/m 0 min 2 min 0 W/m 25,1 km/h (4 Bft)
26.03.2015 19:54 5,1 C 3,9 C 94 % 1006,4 hPa 0,0 l/m 0 min 2 min 0 W/m 16,7 km/h (3 Bft)
26.03.2015 19:56 5,1 C 3,9 C 94 % 1006,4 hPa 0,0 l/m 0 min 2 min 0 W/m 12,6 km/h (3 Bft)
26.03.2015 19:58 5,1 C 3,9 C 94 % 1006,4 hPa 0,0 l/m 0 min 2 min 0 W/m 12,6 km/h (3 Bft)
26.03.2015 20:00 5,1 C 3,9 C 94 % 1006,4 hPa 0,0 l/m 0 min 2 min 0 W/m 20,9 km/h (4 Bft)
26.03.2015 20:02 5,1 C 3,9 C 94 % 1006,4 hPa 0,2 l/m 0 min 2 min 0 W/m 18,8 km/h (3 Bft)
26.03.2015 20:04 5,1 C 3,9 C 94 % 1006,4 hPa 0,0 l/m 0 min 2 min 0 W/m 20,9 km/h (4 Bft)
26.03.2015 20:06 5,1 C 3,9 C 94 % 1006,4 hPa 0,0 l/m 0 min 2 min 0 W/m 14,6 km/h (3 Bft)
26.03.2015 20:08 5,1 C 3,9 C 94 % 1006,4 hPa 0,0 l/m 0 min 2 min 0 W/m 14,6 km/h (3 Bft)
26.03.2015 20:10 5,1 C 3,9 C 94 % 1006,5 hPa 0,0 l/m 0 min 2 min 0 W/m 14,6 km/h (3 Bft)
26.03.2015 20:12 5,2 C 3,9 C 94 % 1006,4 hPa 0,0 l/m 0 min 2 min 0 W/m 20,9 km/h (4 Bft)
26.03.2015 20:14 5,2 C 3,9 C 94 % 1006,4 hPa 0,0 l/m 0 min 0 min 0 W/m 14,6 km/h (3 Bft)
26.03.2015 20:16 5,2 C 3,9 C 94 % 1006,4 hPa 0,0 l/m 0 min 0 min 0 W/m 14,6 km/h (3 Bft)
26.03.2015 20:18 5,2 C 3,9 C 94 % 1006,5 hPa 0,0 l/m 0 min 0 min 0 W/m 18,8 km/h (3 Bft)
26.03.2015 20:20 5,2 C 3,9 C 94 % 1006,4 hPa 0,0 l/m 0 min 0 min 0 W/m 14,6 km/h (3 Bft)
26.03.2015 20:22 5,2 C 3,9 C 94 % 1006,4 hPa 0,0 l/m 0 min 0 min 0 W/m 12,6 km/h (3 Bft)
26.03.2015 20:24 5,2 C 3,9 C 94 % 1006,4 hPa 0,0 l/m 0 min 0 min 0 W/m 18,8 km/h (3 Bft)
26.03.2015 20:26 5,2 C 3,9 C 94 % 1006,5 hPa 0,0 l/m 0 min 2 min 0 W/m 18,8 km/h (3 Bft)
26.03.2015 20:28 5,2 C 3,9 C 94 % 1006,4 hPa 0,0 l/m 0 min 0 min 0 W/m 18,8 km/h (3 Bft)
26.03.2015 20:30 5,2 C 3,9 C 94 % 1006,4 hPa 0,0 l/m 0 min 0 min 0 W/m 12,6 km/h (3 Bft)
26.03.2015 20:32 5,2 C 3,9 C 94 % 1006,5 hPa 0,0 l/m 0 min 0 min 0 W/m 14,6 km/h (3 Bft)
26.03.2015 20:34 5,2 C 3,9 C 94 % 1006,5 hPa 0,0 l/m 0 min 0 min 0 W/m 14,6 km/h (3 Bft)
26.03.2015 20:36 5,2 C 3,9 C 94 % 1006,5 hPa 0,0 l/m 0 min 0 min 0 W/m 10,5 km/h (2 Bft)
26.03.2015 20:38 5,2 C 3,9 C 94 % 1006,5 hPa 0,0 l/m 0 min 0 min 0 W/m 12,6 km/h (3 Bft)
26.03.2015 20:40 5,2 C 3,9 C 94 % 1006,6 hPa 0,0 l/m 0 min 0 min 0 W/m 16,7 km/h (3 Bft)
26.03.2015 20:42 5,2 C 3,9 C 94 % 1006,6 hPa 0,0 l/m 0 min 0 min 0 W/m 16,7 km/h (3 Bft)
26.03.2015 20:44 5,2 C 3,9 C 94 % 1006,6 hPa 0,0 l/m 0 min 0 min 0 W/m 12,6 km/h (3 Bft)
26.03.2015 20:46 5,2 C 3,9 C 94 % 1006,5 hPa 0,0 l/m 0 min 0 min 0 W/m 14,6 km/h (3 Bft)
26.03.2015 20:48 5,2 C 3,9 C 94 % 1006,6 hPa 0,0 l/m 0 min 0 min 0 W/m 16,7 km/h (3 Bft)
26.03.2015 20:50 5,2 C 3,9 C 94 % 1006,6 hPa 0,0 l/m 0 min 0 min 0 W/m 14,6 km/h (3 Bft)
26.03.2015 20:52 5,2 C 3,9 C 94 % 1006,6 hPa 0,0 l/m 0 min 0 min 0 W/m 20,9 km/h (4 Bft)
26.03.2015 20:54 5,2 C 3,9 C 94 % 1006,6 hPa 0,0 l/m 0 min 0 min 0 W/m 18,8 km/h (3 Bft)
26.03.2015 20:56 5,2 C 3,9 C 94 % 1006,6 hPa 0,0 l/m 0 min 0 min 0 W/m 18,8 km/h (3 Bft)
26.03.2015 20:58 5,2 C 3,9 C 95 % 1006,6 hPa 0,0 l/m 0 min 0 min 0 W/m 16,7 km/h (3 Bft)
26.03.2015 21:00 5,3 C 3,9 C 95 % 1006,6 hPa 0,0 l/m 0 min 0 min 0 W/m 12,6 km/h (3 Bft)
26.03.2015 21:02 5,3 C 3,9 C 95 % 1006,6 hPa 0,0 l/m 0 min 0 min 0 W/m 10,5 km/h (2 Bft)
26.03.2015 21:04 5,3 C 3,9 C 95 % 1006,6 hPa 0,0 l/m 0 min 0 min 0 W/m 16,7 km/h (3 Bft)
26.03.2015 21:06 5,3 C 3,9 C 95 % 1006,6 hPa 0,0 l/m 0 min 0 min 0 W/m 16,7 km/h (3 Bft)
26.03.2015 21:08 5,3 C 3,9 C 95 % 1006,6 hPa 0,0 l/m 0 min 0 min 0 W/m 20,9 km/h (4 Bft)
26.03.2015 21:10 5,3 C 3,9 C 95 % 1006,6 hPa 0,0 l/m 0 min 0 min 0 W/m 18,8 km/h (3 Bft)
26.03.2015 21:12 5,4 C 3,9 C 95 % 1006,6 hPa 0,0 l/m 0 min 0 min 0 W/m 18,8 km/h (3 Bft)
26.03.2015 21:14 5,4 C 4,4 C 95 % 1006,7 hPa 0,0 l/m 0 min 0 min 0 W/m 20,9 km/h (4 Bft)
26.03.2015 21:16 5,4 C 4,4 C 95 % 1006,8 hPa 0,0 l/m 0 min 0 min 0 W/m 16,7 km/h (3 Bft)
26.03.2015 21:18 5,4 C 4,4 C 95 % 1006,8 hPa 0,0 l/m 0 min 0 min 0 W/m 18,8 km/h (3 Bft)
26.03.2015 21:20 5,4 C 4,4 C 95 % 1006,8 hPa 0,0 l/m 0 min 0 min 0 W/m 14,6 km/h (3 Bft)
26.03.2015 21:22 5,4 C 4,4 C 95 % 1006,8 hPa 0,0 l/m 0 min 0 min 0 W/m 16,7 km/h (3 Bft)
26.03.2015 21:24 5,5 C 4,4 C 95 % 1006,9 hPa 0,0 l/m 0 min 0 min 0 W/m 20,9 km/h (4 Bft)
26.03.2015 21:26 5,5 C 4,4 C 95 % 1006,8 hPa 0,0 l/m 0 min 0 min 0 W/m 20,9 km/h (4 Bft)
26.03.2015 21:28 5,5 C 4,4 C 95 % 1006,9 hPa 0,0 l/m 0 min 0 min 0 W/m 16,7 km/h (3 Bft)
26.03.2015 21:30 5,6 C 4,4 C 95 % 1006,8 hPa 0,0 l/m 0 min 0 min 0 W/m 16,7 km/h (3 Bft)
26.03.2015 21:32 5,6 C 4,4 C 95 % 1006,9 hPa 0,0 l/m 0 min 0 min 0 W/m 20,9 km/h (4 Bft)
26.03.2015 21:34 5,6 C 4,4 C 95 % 1006,9 hPa 0,0 l/m 0 min 0 min 0 W/m 23,0 km/h (4 Bft)
26.03.2015 21:36 5,6 C 4,4 C 95 % 1007,0 hPa 0,0 l/m 0 min 0 min 0 W/m 18,8 km/h (3 Bft)
26.03.2015 21:38 5,6 C 4,4 C 95 % 1007,0 hPa 0,0 l/m 0 min 0 min 0 W/m 16,7 km/h (3 Bft)
26.03.2015 21:40 5,7 C 4,4 C 95 % 1007,0 hPa 0,0 l/m 0 min 0 min 0 W/m 16,7 km/h (3 Bft)
26.03.2015 21:42 5,7 C 4,4 C 95 % 1007,1 hPa 0,0 l/m 0 min 0 min 0 W/m 20,9 km/h (4 Bft)
26.03.2015 21:44 5,7 C 4,4 C 95 % 1007,1 hPa 0,0 l/m 0 min 0 min 0 W/m 18,8 km/h (3 Bft)
26.03.2015 21:46 5,7 C 4,4 C 95 % 1007,0 hPa 0,0 l/m 0 min 0 min 0 W/m 14,6 km/h (3 Bft)
26.03.2015 21:48 5,7 C 4,4 C 95 % 1007,1 hPa 0,0 l/m 0 min 0 min 0 W/m 20,9 km/h (4 Bft)
26.03.2015 21:50 5,7 C 4,4 C 95 % 1007,0 hPa 0,0 l/m 0 min 0 min 0 W/m 18,8 km/h (3 Bft)
26.03.2015 21:52 5,7 C 4,4 C 95 % 1007,0 hPa 0,0 l/m 0 min 0 min 0 W/m 18,8 km/h (3 Bft)
26.03.2015 21:54 5,8 C 4,4 C 95 % 1007,1 hPa 0,0 l/m 0 min 0 min 0 W/m 20,9 km/h (4 Bft)
26.03.2015 21:56 5,8 C 4,4 C 95 % 1007,1 hPa 0,0 l/m 0 min 0 min 0 W/m 20,9 km/h (4 Bft)
26.03.2015 21:58 5,8 C 4,4 C 96 % 1007,2 hPa 0,0 l/m 0 min 0 min 0 W/m 25,1 km/h (4 Bft)
26.03.2015 22:00 5,8 C 4,4 C 96 % 1007,2 hPa 0,0 l/m 0 min 0 min 0 W/m 20,9 km/h (4 Bft)
26.03.2015 22:02 5,9 C 4,4 C 96 % 1007,2 hPa 0,0 l/m 0 min 0 min 0 W/m 20,9 km/h (4 Bft)
26.03.2015 22:04 5,9 C 4,4 C 96 % 1007,3 hPa 0,0 l/m 0 min 0 min 0 W/m 23,0 km/h (4 Bft)
26.03.2015 22:06 5,9 C 4,4 C 96 % 1007,2 hPa 0,0 l/m 0 min 0 min 0 W/m 18,8 km/h (3 Bft)
26.03.2015 22:08 5,9 C 4,4 C 96 % 1007,2 hPa 0,0 l/m 0 min 0 min 0 W/m 20,9 km/h (4 Bft)
26.03.2015 22:10 5,9 C 4,4 C 96 % 1007,3 hPa 0,0 l/m 0 min 0 min 0 W/m 20,9 km/h (4 Bft)
26.03.2015 22:12 5,9 C 4,4 C 96 % 1007,3 hPa 0,0 l/m 0 min 0 min 0 W/m 23,0 km/h (4 Bft)
26.03.2015 22:14 6,0 C 4,4 C 96 % 1007,5 hPa 0,0 l/m 0 min 0 min 0 W/m 16,7 km/h (3 Bft)
26.03.2015 22:16 6,0 C 4,4 C 96 % 1007,4 hPa 0,0 l/m 0 min 0 min 0 W/m 18,8 km/h (3 Bft)
26.03.2015 22:18 6,0 C 4,4 C 96 % 1007,4 hPa 0,0 l/m 0 min 0 min 0 W/m 18,8 km/h (3 Bft)
26.03.2015 22:20 6,1 C 4,4 C 96 % 1007,5 hPa 0,0 l/m 0 min 0 min 0 W/m 31,4 km/h (5 Bft)
26.03.2015 22:22 6,1 C 4,4 C 96 % 1007,4 hPa 0,2 l/m 0 min 0 min 0 W/m 25,1 km/h (4 Bft)
26.03.2015 22:24 6,1 C 4,4 C 96 % 1007,4 hPa 0,0 l/m 0 min 0 min 0 W/m 23,0 km/h (4 Bft)
26.03.2015 22:26 6,1 C 4,4 C 96 % 1007,5 hPa 0,0 l/m 0 min 0 min 0 W/m 18,8 km/h (3 Bft)
26.03.2015 22:28 6,1 C 4,4 C 96 % 1007,5 hPa 0,0 l/m 0 min 0 min 0 W/m 20,9 km/h (4 Bft)
26.03.2015 22:30 6,2 C 5,0 C 96 % 1007,6 hPa 0,0 l/m 0 min 0 min 0 W/m 20,9 km/h (4 Bft)
26.03.2015 22:32 6,2 C 5,0 C 96 % 1007,5 hPa 0,0 l/m 0 min 0 min 0 W/m 23,0 km/h (4 Bft)
26.03.2015 22:34 6,2 C 5,0 C 96 % 1007,6 hPa 0,0 l/m 0 min 0 min 0 W/m 18,8 km/h (3 Bft)
26.03.2015 22:36 6,2 C 5,0 C 96 % 1007,6 hPa 0,0 l/m 0 min 0 min 0 W/m 16,7 km/h (3 Bft)
26.03.2015 22:38 6,2 C 4,4 C 96 % 1007,6 hPa 0,0 l/m 0 min 0 min 0 W/m 16,7 km/h (3 Bft)
26.03.2015 22:40 6,2 C 4,4 C 96 % 1007,6 hPa 0,0 l/m 0 min 0 min 0 W/m 20,9 km/h (4 Bft)
26.03.2015 22:42 6,2 C 5,0 C 96 % 1007,6 hPa 0,0 l/m 0 min 0 min 0 W/m 18,8 km/h (3 Bft)
26.03.2015 22:44 6,2 C 5,0 C 96 % 1007,6 hPa 0,0 l/m 0 min 0 min 0 W/m 23,0 km/h (4 Bft)
26.03.2015 22:46 6,2 C 5,0 C 96 % 1007,6 hPa 0,0 l/m 0 min 0 min 0 W/m 23,0 km/h (4 Bft)
26.03.2015 22:48 6,2 C 5,0 C 96 % 1007,7 hPa 0,0 l/m 0 min 0 min 0 W/m 23,0 km/h (4 Bft)
26.03.2015 22:50 6,2 C 5,0 C 96 % 1007,6 hPa 0,0 l/m 0 min 0 min 0 W/m 20,9 km/h (4 Bft)
26.03.2015 22:52 6,2 C 5,0 C 96 % 1007,7 hPa 0,0 l/m 0 min 0 min 0 W/m 18,8 km/h (3 Bft)
26.03.2015 22:54 6,2 C 5,0 C 96 % 1007,7 hPa 0,0 l/m 0 min 0 min 0 W/m 12,6 km/h (3 Bft)
26.03.2015 22:56 6,2 C 4,4 C 96 % 1007,7 hPa 0,0 l/m 0 min 0 min 0 W/m 23,0 km/h (4 Bft)
26.03.2015 22:58 6,2 C 4,4 C 96 % 1007,7 hPa 0,0 l/m 0 min 0 min 0 W/m 18,8 km/h (3 Bft)
26.03.2015 23:00 6,2 C 4,4 C 96 % 1007,7 hPa 0,0 l/m 0 min 0 min 0 W/m 18,8 km/h (3 Bft)
26.03.2015 23:02 6,2 C 4,4 C 96 % 1007,8 hPa 0,0 l/m 0 min 0 min 0 W/m 20,9 km/h (4 Bft)
26.03.2015 23:04 6,2 C 4,4 C 96 % 1007,7 hPa 0,0 l/m 0 min 0 min 0 W/m 20,9 km/h (4 Bft)
26.03.2015 23:06 6,2 C 4,4 C 96 % 1007,8 hPa 0,0 l/m 0 min 0 min 0 W/m 23,0 km/h (4 Bft)
26.03.2015 23:08 6,2 C 4,4 C 96 % 1007,8 hPa 0,0 l/m 0 min 0 min 0 W/m 20,9 km/h (4 Bft)
26.03.2015 23:10 6,2 C 4,4 C 96 % 1007,8 hPa 0,0 l/m 0 min 0 min 0 W/m 23,0 km/h (4 Bft)
26.03.2015 23:12 6,2 C 4,4 C 96 % 1007,8 hPa 0,0 l/m 0 min 0 min 0 W/m 25,1 km/h (4 Bft)
26.03.2015 23:14 6,2 C 4,4 C 96 % 1007,9 hPa 0,0 l/m 0 min 0 min 0 W/m 18,8 km/h (3 Bft)
26.03.2015 23:16 6,2 C 4,4 C 96 % 1007,9 hPa 0,0 l/m 0 min 0 min 0 W/m 20,9 km/h (4 Bft)
26.03.2015 23:18 6,2 C 4,4 C 96 % 1007,9 hPa 0,0 l/m 0 min 0 min 0 W/m 18,8 km/h (3 Bft)
26.03.2015 23:20 6,2 C 4,4 C 96 % 1007,9 hPa 0,0 l/m 0 min 0 min 0 W/m 16,7 km/h (3 Bft)
26.03.2015 23:22 6,2 C 4,4 C 96 % 1007,9 hPa 0,0 l/m 0 min 0 min 0 W/m 18,8 km/h (3 Bft)
26.03.2015 23:24 6,2 C 4,4 C 96 % 1007,9 hPa 0,0 l/m 0 min 0 min 0 W/m 20,9 km/h (4 Bft)
26.03.2015 23:26 6,2 C 4,4 C 96 % 1008,0 hPa 0,0 l/m 0 min 0 min 0 W/m 20,9 km/h (4 Bft)
26.03.2015 23:28 6,2 C 4,4 C 96 % 1008,0 hPa 0,0 l/m 0 min 0 min 0 W/m 18,8 km/h (3 Bft)
26.03.2015 23:30 6,2 C 4,4 C 96 % 1008,0 hPa 0,0 l/m 0 min 0 min 0 W/m 20,9 km/h (4 Bft)
26.03.2015 23:32 6,2 C 4,4 C 96 % 1008,0 hPa 0,0 l/m 0 min 0 min 0 W/m 18,8 km/h (3 Bft)
26.03.2015 23:34 6,2 C 4,4 C 96 % 1008,0 hPa 0,0 l/m 0 min 0 min 0 W/m 16,7 km/h (3 Bft)
26.03.2015 23:36 6,2 C 4,4 C 96 % 1008,0 hPa 0,0 l/m 0 min 0 min 0 W/m 18,8 km/h (3 Bft)
26.03.2015 23:38 6,2 C 4,4 C 96 % 1008,0 hPa 0,0 l/m 0 min 0 min 0 W/m 20,9 km/h (4 Bft)
26.03.2015 23:40 6,2 C 4,4 C 96 % 1008,0 hPa 0,0 l/m 0 min 0 min 0 W/m 18,8 km/h (3 Bft)
26.03.2015 23:42 6,2 C 4,4 C 96 % 1008,0 hPa 0,0 l/m 0 min 0 min 0 W/m 25,1 km/h (4 Bft)
26.03.2015 23:44 6,2 C 4,4 C 96 % 1008,1 hPa 0,0 l/m 0 min 0 min 0 W/m 16,7 km/h (3 Bft)
26.03.2015 23:46 6,2 C 4,4 C 96 % 1008,2 hPa 0,0 l/m 0 min 0 min 0 W/m 12,6 km/h (3 Bft)
26.03.2015 23:48 6,2 C 4,4 C 96 % 1008,1 hPa 0,0 l/m 0 min 0 min 0 W/m 16,7 km/h (3 Bft)
26.03.2015 23:50 6,2 C 4,4 C 96 % 1008,1 hPa 0,0 l/m 0 min 0 min 0 W/m 14,6 km/h (3 Bft)
26.03.2015 23:52 6,2 C 4,4 C 96 % 1008,2 hPa 0,0 l/m 0 min 0 min 0 W/m 16,7 km/h (3 Bft)
26.03.2015 23:54 6,2 C 4,4 C 96 % 1008,2 hPa 0,0 l/m 0 min 0 min 0 W/m 16,7 km/h (3 Bft)
26.03.2015 23:56 6,1 C 4,4 C 96 % 1008,2 hPa 0,0 l/m 0 min 0 min 0 W/m 12,6 km/h (3 Bft)
26.03.2015 23:58 6,1 C 4,4 C 96 % 1008,2 hPa 0,0 l/m 0 min 0 min 0 W/m 18,8 km/h (3 Bft)
_ Min-Zeit 07:22 04:35 14:36 15:00 - - - - 02:16
Minimum _ 4,3 C 3,3 C 59 % 1006,0 hPa - - - - 4,2 km/h (1 Bft)
_ Max-Zeit 13:24 13:18 21:58 07:32 16:56 08:12 15:08 11:16 15:30
Maximum _ 9,3 C 10,0 C 96 % 1009,2 hPa 0,2 l/m 2 min 2 min 790 W/m 46,0 km/h
W (6 Bft)
Durchschnitt _ 6,0 C 5,0 C 87 % 1007,6 hPa #1,6 l/m #3:28 h #3:38 h 180 W/m 16,9 km/h (3 Bft)
© 2015 W. Hausmann